Dobrodošli na spletni strani vremenske postaje Senovo. Vse informacije so informativnega značaja, saj vremenska postaja ni del državne mreže meteoroloških postaj. AKTUALNIH OBVESTIL NI.


Posebna pozornost v zvezi z vremenskimi dogajanji ni potrebna.    Posebna pozornost v zvezi z vremenskimi dogajanji ni potrebna.

Pogled proti Armezu več informacij Pogled proti Armezu


Lisca več informacij Lisca


Radar strel več informacij blitzortung!


Radar padavin več informacij rain snow radar


Obiščite še:

Template documentation
and downloads

And another site



Weather Underground, zgodovina - Tekstovno

Dnevni povzetek za Januar 1, 2018 Enote:  Obe    Angleško   Metrično
« Predhodni Dan
Naslednji Dan »
Dnevni Tedenski Mesečni Letni Po meri
  Višja: Nižja: Povprečje:
Temperatura: TemperatureC °F /  -17.8 °C 4.6 °F /  -15.2 °C 6.9 °F /  -13.9 °C
Točka rosišča: DewpointC °F /  -17.8 °C 2.8 °F /  -16.2 °C 4.7 °F /  -15.2 °C
Vlažnost: Humidity % 76 % 85 %
Hitrost vetra: WindSpeedKMH mph /  0 km/h - 3.4 mph /  5.5 km/h
Sunki vetra: WindSpeedGustKMH mph /  0 km/h - -
Veter:- - South
Zračni tlak: PressurehPa in /  0 hPa 1007.0 in /  34097 hPa -
Padavine: 13.0 in /  330.2 mm    
Historical Graphs
 
 
Tabelarni podarki za Januar 1, 2018
Čas Temperatura Točka rosišča Zračni tlak Veter Hitrost vetra Sunki vetra Vlažnost Intenziteta padavin (urna)
TemperatureC °F /  -17.8 °C DewpointC °F /  -17.8 °C PressurehPa in /  0 hPa Calm     Humidity % HourlyPrecipMM in /  0 mm
00:00 7.7 °F /  -13.5 °C 3.7 °F /  -15.7 °C 1012.1 in /  34269.7 hPa South 3.5 mph /  5.6 km/h 6.9 mph /  11.1 km/h 76 % 0.0 in /  0 mm
00:05 7.7 °F /  -13.5 °C 3.7 °F /  -15.7 °C 1012.1 in /  34269.7 hPa SSW 3.2 mph /  5.1 km/h 6.9 mph /  11.1 km/h 76 % 0.0 in /  0 mm
00:07 7.7 °F /  -13.5 °C 3.7 °F /  -15.7 °C 1012.1 in /  34269.7 hPa SW 2.4 mph /  3.9 km/h 6.9 mph /  11.1 km/h 76 % 0.0 in /  0 mm
00:12 7.8 °F /  -13.4 °C 3.8 °F /  -15.7 °C 1012.1 in /  34269.7 hPa SSW 2.6 mph /  4.2 km/h 6.9 mph /  11.1 km/h 76 % 0.0 in /  0 mm
00:17 7.8 °F /  -13.4 °C 3.8 °F /  -15.7 °C 1012.1 in /  34269.7 hPa SSW 2.7 mph /  4.3 km/h 6.9 mph /  11.1 km/h 76 % 0.0 in /  0 mm
00:21 7.8 °F /  -13.4 °C 3.8 °F /  -15.7 °C 1012.1 in /  34269.7 hPa WSW 2.1 mph /  3.4 km/h 4.3 mph /  6.9 km/h 76 % 0.0 in /  0 mm
00:23 7.8 °F /  -13.4 °C 3.8 °F /  -15.7 °C 1012.1 in /  34269.7 hPa SW 2.1 mph /  3.4 km/h 4.7 mph /  7.6 km/h 76 % 0.0 in /  0 mm
00:24 7.8 °F /  -13.4 °C 3.8 °F /  -15.7 °C 1012.1 in /  34269.7 hPa SW 2.3 mph /  3.7 km/h 5.5 mph /  8.9 km/h 76 % 0.0 in /  0 mm
00:29 7.9 °F /  -13.4 °C 3.9 °F /  -15.6 °C 1012.1 in /  34269.7 hPa SSW 3.9 mph /  6.3 km/h 11.9 mph /  19.2 km/h 76 % 0.0 in /  0 mm
00:30 7.9 °F /  -13.4 °C 3.9 °F /  -15.6 °C 1012.1 in /  34269.7 hPa SSW 3.9 mph /  6.3 km/h 11.9 mph /  19.2 km/h 76 % 0.0 in /  0 mm
00:35 8.0 °F /  -13.3 °C 4.0 °F /  -15.6 °C 1012.1 in /  34269.7 hPa SW 4.0 mph /  6.4 km/h 11.9 mph /  19.2 km/h 76 % 0.0 in /  0 mm
00:38 8.1 °F /  -13.3 °C 4.1 °F /  -15.5 °C 1012.1 in /  34269.7 hPa SW 3.9 mph /  6.3 km/h 7.9 mph /  12.7 km/h 76 % 0.0 in /  0 mm
00:39 8.1 °F /  -13.3 °C 4.1 °F /  -15.5 °C 1012.1 in /  34269.7 hPa WSW 3.5 mph /  5.6 km/h 7.9 mph /  12.7 km/h 76 % 0.0 in /  0 mm
00:44 8.1 °F /  -13.3 °C 4.1 °F /  -15.5 °C 1012.1 in /  34269.7 hPa WSW 2.7 mph /  4.3 km/h 6.9 mph /  11.1 km/h 76 % 0.0 in /  0 mm
00:49 8.2 °F /  -13.2 °C 4.2 °F /  -15.4 °C 1012.1 in /  34269.7 hPa SW 2.9 mph /  4.7 km/h 6.4 mph /  10.3 km/h 76 % 0.0 in /  0 mm
00:54 8.3 °F /  -13.2 °C 4.3 °F /  -15.4 °C 1012.1 in /  34269.7 hPa WSW 3.7 mph /  6 km/h 8.7 mph /  14 km/h 76 % 0.0 in /  0 mm
00:55 8.3 °F /  -13.2 °C 4.3 °F /  -15.4 °C 1012.1 in /  34269.7 hPa WSW 3.7 mph /  6 km/h 8.7 mph /  14 km/h 76 % 0.0 in /  0 mm
00:57 8.3 °F /  -13.2 °C 4.3 °F /  -15.4 °C 1012.1 in /  34269.7 hPa WSW 3.5 mph /  5.6 km/h 8.7 mph /  14 km/h 76 % 0.0 in /  0 mm
01:02 8.2 °F /  -13.2 °C 4.2 °F /  -15.4 °C 1011.1 in /  34235.8 hPa WSW 3.2 mph /  5.1 km/h 10.1 mph /  16.3 km/h 76 % 0.0 in /  0 mm
01:04 8.2 °F /  -13.2 °C 4.2 °F /  -15.4 °C 1011.1 in /  34235.8 hPa WSW 3.5 mph /  5.6 km/h 10.1 mph /  16.3 km/h 76 % 0.0 in /  0 mm
01:09 8.2 °F /  -13.2 °C 4.2 °F /  -15.4 °C 1011.1 in /  34235.8 hPa WSW 3.5 mph /  5.6 km/h 10.1 mph /  16.3 km/h 76 % 0.0 in /  0 mm
01:10 8.2 °F /  -13.2 °C 4.2 °F /  -15.4 °C 1011.1 in /  34235.8 hPa WSW 3.5 mph /  5.6 km/h 10.1 mph /  16.3 km/h 76 % 0.0 in /  0 mm
01:15 8.2 °F /  -13.2 °C 4.2 °F /  -15.4 °C 1011.1 in /  34235.8 hPa West 2.3 mph /  3.7 km/h 5.5 mph /  8.9 km/h 76 % 0.0 in /  0 mm
01:16 8.2 °F /  -13.2 °C 4.2 °F /  -15.4 °C 1011.1 in /  34235.8 hPa West 1.6 mph /  2.6 km/h 5.5 mph /  8.9 km/h 76 % 0.0 in /  0 mm
01:20 8.1 °F /  -13.3 °C 4.1 °F /  -15.5 °C 1011.1 in /  34235.8 hPa WSW 1.1 mph /  1.8 km/h 5.5 mph /  8.9 km/h 76 % 0.0 in /  0 mm
01:25 8.0 °F /  -13.3 °C 4.0 °F /  -15.6 °C 1011.1 in /  34235.8 hPa SW 1.1 mph /  1.8 km/h 5.0 mph /  8 km/h 76 % 0.0 in /  0 mm
01:29 7.9 °F /  -13.4 °C 4.1 °F /  -15.5 °C 1011.1 in /  34235.8 hPa SW 1.3 mph /  2.1 km/h 5.0 mph /  8 km/h 77 % 0.0 in /  0 mm
01:31 7.9 °F /  -13.4 °C 4.1 °F /  -15.5 °C 1011.1 in /  34235.8 hPa SSW 0.6 mph /  1 km/h 4.0 mph /  6.4 km/h 77 % 0.0 in /  0 mm
01:37 7.6 °F /  -13.6 °C 3.6 °F /  -15.8 °C 1011.1 in /  34235.8 hPa NW 0.3 mph /  0.5 km/h 1.8 mph /  2.9 km/h 76 % 0.0 in /  0 mm
01:42 7.5 °F /  -13.6 °C 3.6 °F /  -15.8 °C 1011.1 in /  34235.8 hPa WSW 1.3 mph /  2.1 km/h 5.8 mph /  9.3 km/h 76 % 0.0 in /  0 mm
01:47 7.5 °F /  -13.6 °C 3.6 °F /  -15.8 °C 1011.1 in /  34235.8 hPa WSW 1.3 mph /  2.1 km/h 5.8 mph /  9.3 km/h 76 % 0.0 in /  0 mm
01:51 7.3 °F /  -13.7 °C 3.3 °F /  -15.9 °C 1011.1 in /  34235.8 hPa West 1.1 mph /  1.8 km/h 5.0 mph /  8 km/h 76 % 0.0 in /  0 mm
01:56 7.3 °F /  -13.7 °C 3.6 °F /  -15.8 °C 1011.1 in /  34235.8 hPa West 1.4 mph /  2.3 km/h 6.4 mph /  10.3 km/h 77 % 0.0 in /  0 mm
01:57 7.3 °F /  -13.7 °C 3.6 °F /  -15.8 °C 1011.1 in /  34235.8 hPa West 1.8 mph /  2.9 km/h 6.4 mph /  10.3 km/h 77 % 0.0 in /  0 mm
01:58 7.3 °F /  -13.7 °C 3.6 °F /  -15.8 °C 1011.1 in /  34235.8 hPa WSW 2.1 mph /  3.4 km/h 6.4 mph /  10.3 km/h 77 % 0.0 in /  0 mm
02:02 7.3 °F /  -13.7 °C 3.6 °F /  -15.8 °C 1011.1 in /  34235.8 hPa SW 3.1 mph /  5 km/h 7.9 mph /  12.7 km/h 77 % 0.0 in /  0 mm
02:07 7.3 °F /  -13.7 °C 3.6 °F /  -15.8 °C 1011.1 in /  34235.8 hPa SW 4.2 mph /  6.8 km/h 7.9 mph /  12.7 km/h 77 % 0.0 in /  0 mm
02:10 7.3 °F /  -13.7 °C 3.6 °F /  -15.8 °C 1011.1 in /  34235.8 hPa SW 3.4 mph /  5.5 km/h 7.9 mph /  12.7 km/h 77 % 0.0 in /  0 mm
02:15 7.4 °F /  -13.7 °C 3.6 °F /  -15.8 °C 1010.0 in /  34198.6 hPa WNW 3.9 mph /  6.3 km/h 13.0 mph /  20.9 km/h 77 % 0.0 in /  0 mm
02:16 7.4 °F /  -13.7 °C 3.6 °F /  -15.8 °C 1010.0 in /  34198.6 hPa WNW 4.0 mph /  6.4 km/h 13.0 mph /  20.9 km/h 77 % 0.0 in /  0 mm
02:17 7.4 °F /  -13.7 °C 3.6 °F /  -15.8 °C 1010.0 in /  34198.6 hPa NW 4.2 mph /  6.8 km/h 13.0 mph /  20.9 km/h 77 % 0.0 in /  0 mm
02:22 7.4 °F /  -13.7 °C 3.6 °F /  -15.8 °C 1010.0 in /  34198.6 hPa NW 4.2 mph /  6.8 km/h 9.7 mph /  15.6 km/h 77 % 0.0 in /  0 mm
02:23 7.4 °F /  -13.7 °C 3.6 °F /  -15.8 °C 1010.0 in /  34198.6 hPa NW 4.3 mph /  6.9 km/h 9.7 mph /  15.6 km/h 77 % 0.0 in /  0 mm
02:28 7.5 °F /  -13.6 °C 3.9 °F /  -15.6 °C 1011.1 in /  34235.8 hPa West 3.1 mph /  5 km/h 7.9 mph /  12.7 km/h 78 % 0.0 in /  0 mm
02:33 7.5 °F /  -13.6 °C 3.9 °F /  -15.6 °C 1011.1 in /  34235.8 hPa West 3.1 mph /  5 km/h 9.0 mph /  14.5 km/h 78 % 0.0 in /  0 mm
02:34 7.5 °F /  -13.6 °C 3.9 °F /  -15.6 °C 1011.1 in /  34235.8 hPa West 2.6 mph /  4.2 km/h 9.0 mph /  14.5 km/h 78 % 0.0 in /  0 mm
02:39 7.5 °F /  -13.6 °C 3.9 °F /  -15.6 °C 1011.1 in /  34235.8 hPa West 2.9 mph /  4.7 km/h 9.0 mph /  14.5 km/h 78 % 0.0 in /  0 mm
02:41 7.5 °F /  -13.6 °C 3.9 °F /  -15.6 °C 1011.1 in /  34235.8 hPa West 2.4 mph /  3.9 km/h 9.0 mph /  14.5 km/h 78 % 0.0 in /  0 mm
02:46 7.4 °F /  -13.7 °C 3.8 °F /  -15.7 °C 1011.1 in /  34235.8 hPa NNW 1.4 mph /  2.3 km/h 4.3 mph /  6.9 km/h 78 % 0.0 in /  0 mm
02:48 7.4 °F /  -13.7 °C 3.8 °F /  -15.7 °C 1011.1 in /  34235.8 hPa NNW 1.1 mph /  1.8 km/h 4.3 mph /  6.9 km/h 78 % 0.0 in /  0 mm
02:49 7.3 °F /  -13.7 °C 3.7 °F /  -15.7 °C 1011.1 in /  34235.8 hPa NNW 1.1 mph /  1.8 km/h 4.3 mph /  6.9 km/h 78 % 0.0 in /  0 mm
02:54 7.2 °F /  -13.8 °C 3.6 °F /  -15.8 °C 1011.1 in /  34235.8 hPa West 1.0 mph /  1.6 km/h 4.3 mph /  6.9 km/h 78 % 0.0 in /  0 mm
02:58 7.0 °F /  -13.9 °C 3.4 °F /  -15.9 °C 1011.1 in /  34235.8 hPa WSW 0.2 mph /  0.3 km/h 2.6 mph /  4.2 km/h 78 % 0.0 in /  0 mm
02:59 7.0 °F /  -13.9 °C 3.4 °F /  -15.9 °C 1011.1 in /  34235.8 hPa WSW 0.2 mph /  0.3 km/h 2.6 mph /  4.2 km/h 78 % 0.0 in /  0 mm
03:03 6.8 °F /  -14 °C 3.4 °F /  -15.9 °C 1011.1 in /  34235.8 hPa NW 0.2 mph /  0.3 km/h 3.5 mph /  5.6 km/h 79 % 0.0 in /  0 mm
03:06 6.7 °F /  -14.1 °C 3.3 °F /  -15.9 °C 1011.1 in /  34235.8 hPa NW 0.3 mph /  0.5 km/h 3.5 mph /  5.6 km/h 79 % 0.0 in /  0 mm
03:09 6.7 °F /  -14.1 °C 3.3 °F /  -15.9 °C 1011.1 in /  34235.8 hPa West 0.8 mph /  1.3 km/h 4.7 mph /  7.6 km/h 79 % 0.0 in /  0 mm
03:12 6.8 °F /  -14 °C 3.4 °F /  -15.9 °C 1011.1 in /  34235.8 hPa WSW 1.4 mph /  2.3 km/h 5.5 mph /  8.9 km/h 79 % 0.0 in /  0 mm
03:15 6.8 °F /  -14 °C 3.4 °F /  -15.9 °C 1010.0 in /  34198.6 hPa WSW 2.1 mph /  3.4 km/h 6.1 mph /  9.8 km/h 79 % 0.0 in /  0 mm
03:20 6.9 °F /  -13.9 °C 3.5 °F /  -15.8 °C 1010.0 in /  34198.6 hPa WSW 3.9 mph /  6.3 km/h 9.7 mph /  15.6 km/h 79 % 0.0 in /  0 mm
03:21 6.9 °F /  -13.9 °C 3.5 °F /  -15.8 °C 1010.0 in /  34198.6 hPa WSW 4.2 mph /  6.8 km/h 9.7 mph /  15.6 km/h 79 % 0.0 in /  0 mm
03:26 7.1 °F /  -13.8 °C 3.7 °F /  -15.7 °C 1010.0 in /  34198.6 hPa West 5.1 mph /  8.2 km/h 9.7 mph /  15.6 km/h 79 % 0.0 in /  0 mm
03:31 7.2 °F /  -13.8 °C 4.0 °F /  -15.6 °C 1010.0 in /  34198.6 hPa West 4.7 mph /  7.6 km/h 9.0 mph /  14.5 km/h 80 % 0.0 in /  0 mm
03:34 7.2 °F /  -13.8 °C 4.0 °F /  -15.6 °C 1010.0 in /  34198.6 hPa WNW 4.7 mph /  7.6 km/h 7.9 mph /  12.7 km/h 80 % 0.0 in /  0 mm
03:36 7.3 °F /  -13.7 °C 4.1 °F /  -15.5 °C 1010.0 in /  34198.6 hPa WNW 3.9 mph /  6.3 km/h 6.9 mph /  11.1 km/h 80 % 0.0 in /  0 mm
03:40 7.3 °F /  -13.7 °C 4.1 °F /  -15.5 °C 1010.0 in /  34198.6 hPa WNW 2.9 mph /  4.7 km/h 6.9 mph /  11.1 km/h 80 % 0.0 in /  0 mm
03:42 7.3 °F /  -13.7 °C 4.1 °F /  -15.5 °C 1010.0 in /  34198.6 hPa West 2.3 mph /  3.7 km/h 9.0 mph /  14.5 km/h 80 % 0.0 in /  0 mm
03:46 7.4 °F /  -13.7 °C 4.2 °F /  -15.4 °C 1010.0 in /  34198.6 hPa SW 2.6 mph /  4.2 km/h 9.0 mph /  14.5 km/h 80 % 0.0 in /  0 mm
03:48 7.3 °F /  -13.7 °C 4.1 °F /  -15.5 °C 1010.0 in /  34198.6 hPa WSW 2.9 mph /  4.7 km/h 9.0 mph /  14.5 km/h 80 % 0.0 in /  0 mm
03:53 7.4 °F /  -13.7 °C 4.2 °F /  -15.4 °C 1010.0 in /  34198.6 hPa West 3.5 mph /  5.6 km/h 7.9 mph /  12.7 km/h 80 % 0.0 in /  0 mm
03:58 7.4 °F /  -13.7 °C 4.3 °F /  -15.4 °C 1010.0 in /  34198.6 hPa West 4.5 mph /  7.2 km/h 7.9 mph /  12.7 km/h 81 % 0.0 in /  0 mm
04:00 7.4 °F /  -13.7 °C 4.3 °F /  -15.4 °C 1010.0 in /  34198.6 hPa West 4.7 mph /  7.6 km/h 7.9 mph /  12.7 km/h 81 % 0.0 in /  0 mm
04:01 7.4 °F /  -13.7 °C 4.3 °F /  -15.4 °C 1010.0 in /  34198.6 hPa West 4.7 mph /  7.6 km/h 7.9 mph /  12.7 km/h 81 % 0.0 in /  0 mm
04:04 7.4 °F /  -13.7 °C 4.3 °F /  -15.4 °C 1010.0 in /  34198.6 hPa West 4.5 mph /  7.2 km/h 7.9 mph /  12.7 km/h 81 % 0.0 in /  0 mm
04:09 7.3 °F /  -13.7 °C 4.3 °F /  -15.4 °C 1010.0 in /  34198.6 hPa WSW 4.0 mph /  6.4 km/h 7.6 mph /  12.2 km/h 81 % 0.0 in /  0 mm
04:14 7.3 °F /  -13.7 °C 4.3 °F /  -15.4 °C 1009.0 in /  34164.7 hPa SW 6.0 mph /  9.7 km/h 13.7 mph /  22 km/h 81 % 0.0 in /  0 mm
04:19 7.3 °F /  -13.7 °C 4.3 °F /  -15.4 °C 1009.0 in /  34164.7 hPa SW 7.1 mph /  11.4 km/h 13.7 mph /  22 km/h 81 % 0.0 in /  0 mm
04:24 7.3 °F /  -13.7 °C 4.3 °F /  -15.4 °C 1009.0 in /  34164.7 hPa SW 6.4 mph /  10.3 km/h 9.7 mph /  15.6 km/h 81 % 0.0 in /  0 mm
04:26 7.3 °F /  -13.7 °C 4.3 °F /  -15.4 °C 1009.0 in /  34164.7 hPa SW 6.3 mph /  10.1 km/h 9.7 mph /  15.6 km/h 81 % 0.0 in /  0 mm
04:29 7.2 °F /  -13.8 °C 4.2 °F /  -15.4 °C 1009.0 in /  34164.7 hPa SW 6.0 mph /  9.7 km/h 9.7 mph /  15.6 km/h 81 % 0.0 in /  0 mm
04:33 7.3 °F /  -13.7 °C 4.3 °F /  -15.4 °C 1009.0 in /  34164.7 hPa SSW 5.8 mph /  9.3 km/h 9.0 mph /  14.5 km/h 81 % 0.0 in /  0 mm
04:35 7.2 °F /  -13.8 °C 4.2 °F /  -15.4 °C 1009.0 in /  34164.7 hPa SSW 5.8 mph /  9.3 km/h 9.0 mph /  14.5 km/h 81 % 0.0 in /  0 mm
04:38 7.2 °F /  -13.8 °C 4.2 °F /  -15.4 °C 1009.0 in /  34164.7 hPa SSW 5.6 mph /  9 km/h 9.0 mph /  14.5 km/h 81 % 0.0 in /  0 mm
04:43 7.2 °F /  -13.8 °C 4.2 °F /  -15.4 °C 1009.0 in /  34164.7 hPa SW 5.8 mph /  9.3 km/h 10.1 mph /  16.3 km/h 81 % 0.0 in /  0 mm
04:48 7.2 °F /  -13.8 °C 4.2 °F /  -15.4 °C 1009.0 in /  34164.7 hPa SW 5.0 mph /  8 km/h 10.1 mph /  16.3 km/h 81 % 0.0 in /  0 mm
04:49 7.2 °F /  -13.8 °C 4.2 °F /  -15.4 °C 1009.0 in /  34164.7 hPa SW 4.8 mph /  7.7 km/h 10.1 mph /  16.3 km/h 81 % 0.0 in /  0 mm
04:54 7.3 °F /  -13.7 °C 4.3 °F /  -15.4 °C 1009.0 in /  34164.7 hPa SSW 3.2 mph /  5.1 km/h 6.4 mph /  10.3 km/h 81 % 0.0 in /  0 mm
04:58 7.2 °F /  -13.8 °C 4.3 °F /  -15.4 °C 1008.0 in /  34130.9 hPa SW 2.9 mph /  4.7 km/h 6.1 mph /  9.8 km/h 82 % 0.0 in /  0 mm
05:03 7.3 °F /  -13.7 °C 4.4 °F /  -15.3 °C 1008.0 in /  34130.9 hPa SW 3.4 mph /  5.5 km/h 6.9 mph /  11.1 km/h 82 % 0.0 in /  0 mm
05:08 7.3 °F /  -13.7 °C 4.4 °F /  -15.3 °C 1008.0 in /  34130.9 hPa WSW 3.9 mph /  6.3 km/h 8.7 mph /  14 km/h 82 % 0.0 in /  0 mm
05:12 7.4 °F /  -13.7 °C 4.5 °F /  -15.3 °C 1008.0 in /  34130.9 hPa WSW 3.7 mph /  6 km/h 8.7 mph /  14 km/h 82 % 0.0 in /  0 mm
05:17 7.4 °F /  -13.7 °C 4.5 °F /  -15.3 °C 1009.0 in /  34164.7 hPa SW 2.9 mph /  4.7 km/h 6.9 mph /  11.1 km/h 82 % 0.0 in /  0 mm
05:19 7.4 °F /  -13.7 °C 4.5 °F /  -15.3 °C 1009.0 in /  34164.7 hPa SW 3.2 mph /  5.1 km/h 6.4 mph /  10.3 km/h 82 % 0.0 in /  0 mm
05:21 7.5 °F /  -13.6 °C 4.6 °F /  -15.2 °C 1009.0 in /  34164.7 hPa SW 3.7 mph /  6 km/h 7.9 mph /  12.7 km/h 82 % 0.0 in /  0 mm
05:24 7.5 °F /  -13.6 °C 4.6 °F /  -15.2 °C 1009.0 in /  34164.7 hPa SW 4.2 mph /  6.8 km/h 7.9 mph /  12.7 km/h 82 % 0.0 in /  0 mm
05:29 7.5 °F /  -13.6 °C 4.6 °F /  -15.2 °C 1008.0 in /  34130.9 hPa SW 5.3 mph /  8.5 km/h 9.0 mph /  14.5 km/h 82 % 0.0 in /  0 mm
05:30 7.5 °F /  -13.6 °C 4.6 °F /  -15.2 °C 1008.0 in /  34130.9 hPa SW 5.1 mph /  8.2 km/h 9.0 mph /  14.5 km/h 82 % 0.0 in /  0 mm
05:35 7.5 °F /  -13.6 °C 4.6 °F /  -15.2 °C 1008.0 in /  34130.9 hPa SW 4.0 mph /  6.4 km/h 9.0 mph /  14.5 km/h 82 % 0.0 in /  0 mm
05:40 7.5 °F /  -13.6 °C 4.6 °F /  -15.2 °C 1008.0 in /  34130.9 hPa SW 4.2 mph /  6.8 km/h 9.7 mph /  15.6 km/h 82 % 0.0 in /  0 mm
05:43 7.5 °F /  -13.6 °C 4.6 °F /  -15.2 °C 1009.0 in /  34164.7 hPa SW 4.5 mph /  7.2 km/h 10.5 mph /  16.9 km/h 82 % 0.0 in /  0 mm
05:48 7.5 °F /  -13.6 °C 4.6 °F /  -15.2 °C 1009.0 in /  34164.7 hPa WSW 4.3 mph /  6.9 km/h 10.5 mph /  16.9 km/h 82 % 0.0 in /  0 mm
05:49 7.5 °F /  -13.6 °C 4.6 °F /  -15.2 °C 1009.0 in /  34164.7 hPa WSW 4.0 mph /  6.4 km/h 10.5 mph /  16.9 km/h 82 % 0.0 in /  0 mm
05:51 7.5 °F /  -13.6 °C 4.6 °F /  -15.2 °C 1009.0 in /  34164.7 hPa WSW 4.0 mph /  6.4 km/h 10.5 mph /  16.9 km/h 82 % 0.0 in /  0 mm
05:56 7.5 °F /  -13.6 °C 4.6 °F /  -15.2 °C 1009.0 in /  34164.7 hPa SW 3.1 mph /  5 km/h 7.6 mph /  12.2 km/h 82 % 0.0 in /  0 mm
06:01 7.6 °F /  -13.6 °C 4.9 °F /  -15.1 °C 1009.0 in /  34164.7 hPa SW 4.2 mph /  6.8 km/h 11.9 mph /  19.2 km/h 83 % 0.0 in /  0 mm
06:03 7.6 °F /  -13.6 °C 4.9 °F /  -15.1 °C 1009.0 in /  34164.7 hPa SW 4.5 mph /  7.2 km/h 11.9 mph /  19.2 km/h 83 % 0.0 in /  0 mm
06:08 7.7 °F /  -13.5 °C 5.0 °F /  -15 °C 1009.0 in /  34164.7 hPa SW 4.7 mph /  7.6 km/h 11.9 mph /  19.2 km/h 83 % 0.0 in /  0 mm
06:13 7.7 °F /  -13.5 °C 5.0 °F /  -15 °C 1008.0 in /  34130.9 hPa SW 4.2 mph /  6.8 km/h 8.7 mph /  14 km/h 83 % 0.0 in /  0 mm
06:18 7.7 °F /  -13.5 °C 5.0 °F /  -15 °C 1008.0 in /  34130.9 hPa SW 2.9 mph /  4.7 km/h 8.7 mph /  14 km/h 83 % 0.0 in /  0 mm
06:20 7.8 °F /  -13.4 °C 5.1 °F /  -14.9 °C 1008.0 in /  34130.9 hPa WSW 2.4 mph /  3.9 km/h 8.7 mph /  14 km/h 83 % 0.0 in /  0 mm
06:25 7.8 °F /  -13.4 °C 5.1 °F /  -14.9 °C 1008.0 in /  34130.9 hPa SW 2.9 mph /  4.7 km/h 9.7 mph /  15.6 km/h 83 % 0.0 in /  0 mm
06:30 7.9 °F /  -13.4 °C 5.2 °F /  -14.9 °C 1008.0 in /  34130.9 hPa SW 5.0 mph /  8 km/h 10.5 mph /  16.9 km/h 83 % 0.0 in /  0 mm
06:33 7.9 °F /  -13.4 °C 5.2 °F /  -14.9 °C 1008.0 in /  34130.9 hPa SW 5.1 mph /  8.2 km/h 10.5 mph /  16.9 km/h 83 % 0.0 in /  0 mm
06:38 7.8 °F /  -13.4 °C 5.1 °F /  -14.9 °C 1008.0 in /  34130.9 hPa SW 3.5 mph /  5.6 km/h 6.9 mph /  11.1 km/h 83 % 0.0 in /  0 mm
06:41 7.8 °F /  -13.4 °C 5.1 °F /  -14.9 °C 1008.0 in /  34130.9 hPa SW 2.3 mph /  3.7 km/h 6.9 mph /  11.1 km/h 83 % 0.0 in /  0 mm
06:42 7.8 °F /  -13.4 °C 5.1 °F /  -14.9 °C 1008.0 in /  34130.9 hPa SW 1.9 mph /  3.1 km/h 6.4 mph /  10.3 km/h 83 % 0.0 in /  0 mm
06:47 7.8 °F /  -13.4 °C 5.1 °F /  -14.9 °C 1008.0 in /  34130.9 hPa SW 2.7 mph /  4.3 km/h 6.4 mph /  10.3 km/h 83 % 0.0 in /  0 mm
06:48 7.8 °F /  -13.4 °C 5.1 °F /  -14.9 °C 1008.0 in /  34130.9 hPa SSW 2.4 mph /  3.9 km/h 6.4 mph /  10.3 km/h 83 % 0.0 in /  0 mm
06:50 7.8 °F /  -13.4 °C 5.1 °F /  -14.9 °C 1008.0 in /  34130.9 hPa SSW 3.1 mph /  5 km/h 6.4 mph /  10.3 km/h 83 % 0.0 in /  0 mm
06:55 7.9 °F /  -13.4 °C 5.2 °F /  -14.9 °C 1008.0 in /  34130.9 hPa SW 3.4 mph /  5.5 km/h 16.3 mph /  26.2 km/h 83 % 0.0 in /  0 mm
07:00 8.1 °F /  -13.3 °C 5.4 °F /  -14.8 °C 1009.0 in /  34164.7 hPa SW 4.8 mph /  7.7 km/h 16.3 mph /  26.2 km/h 83 % 0.0 in /  0 mm
07:03 8.2 °F /  -13.2 °C 5.5 °F /  -14.7 °C 1009.0 in /  34164.7 hPa SW 6.1 mph /  9.8 km/h 16.3 mph /  26.2 km/h 83 % 0.0 in /  0 mm
07:08 8.3 °F /  -13.2 °C 5.6 °F /  -14.7 °C 1009.0 in /  34164.7 hPa SW 6.4 mph /  10.3 km/h 13.0 mph /  20.9 km/h 83 % 0.0 in /  0 mm
07:09 8.3 °F /  -13.2 °C 5.6 °F /  -14.7 °C 1009.0 in /  34164.7 hPa SW 6.4 mph /  10.3 km/h 13.0 mph /  20.9 km/h 83 % 0.0 in /  0 mm
07:14 8.4 °F /  -13.1 °C 5.7 °F /  -14.6 °C 1008.0 in /  34130.9 hPa SW 6.0 mph /  9.7 km/h 12.6 mph /  20.3 km/h 83 % 0.0 in /  0 mm
07:19 8.5 °F /  -13.1 °C 5.8 °F /  -14.6 °C 1008.0 in /  34130.9 hPa SSW 5.8 mph /  9.3 km/h 9.0 mph /  14.5 km/h 83 % 0.0 in /  0 mm
07:20 8.5 °F /  -13.1 °C 5.8 °F /  -14.6 °C 1008.0 in /  34130.9 hPa SW 5.8 mph /  9.3 km/h 9.0 mph /  14.5 km/h 83 % 0.0 in /  0 mm
07:25 8.6 °F /  -13 °C 5.9 °F /  -14.5 °C 1008.0 in /  34130.9 hPa SW 6.3 mph /  10.1 km/h 13.7 mph /  22 km/h 83 % 0.0 in /  0 mm
07:27 8.6 °F /  -13 °C 5.9 °F /  -14.5 °C 1008.0 in /  34130.9 hPa SW 6.1 mph /  9.8 km/h 13.7 mph /  22 km/h 83 % 0.0 in /  0 mm
07:32 8.6 °F /  -13 °C 5.9 °F /  -14.5 °C 1009.0 in /  34164.7 hPa SSW 5.8 mph /  9.3 km/h 13.7 mph /  22 km/h 83 % 0.0 in /  0 mm
07:36 8.7 °F /  -12.9 °C 6.0 °F /  -14.4 °C 1009.0 in /  34164.7 hPa SSW 5.3 mph /  8.5 km/h 10.1 mph /  16.3 km/h 83 % 0.0 in /  0 mm
07:41 8.7 °F /  -12.9 °C 6.0 °F /  -14.4 °C 1009.0 in /  34164.7 hPa SW 5.8 mph /  9.3 km/h 9.7 mph /  15.6 km/h 83 % 0.0 in /  0 mm
07:42 8.8 °F /  -12.9 °C 6.1 °F /  -14.4 °C 1009.0 in /  34164.7 hPa SSW 5.8 mph /  9.3 km/h 9.7 mph /  15.6 km/h 83 % 0.0 in /  0 mm
07:43 8.8 °F /  -12.9 °C 6.1 °F /  -14.4 °C 1010.0 in /  34198.6 hPa SW 5.8 mph /  9.3 km/h 9.7 mph /  15.6 km/h 83 % 0.0 in /  0 mm
07:47 8.8 °F /  -12.9 °C 6.1 °F /  -14.4 °C 1010.0 in /  34198.6 hPa SW 6.0 mph /  9.7 km/h 9.7 mph /  15.6 km/h 83 % 0.0 in /  0 mm
07:52 8.8 °F /  -12.9 °C 6.1 °F /  -14.4 °C 1010.0 in /  34198.6 hPa SW 5.6 mph /  9 km/h 10.5 mph /  16.9 km/h 83 % 0.0 in /  0 mm
07:56 8.8 °F /  -12.9 °C 6.1 °F /  -14.4 °C 1010.0 in /  34198.6 hPa SSW 6.3 mph /  10.1 km/h 13.7 mph /  22 km/h 83 % 0.0 in /  0 mm
08:01 8.8 °F /  -12.9 °C 6.1 °F /  -14.4 °C 1010.0 in /  34198.6 hPa SSW 6.8 mph /  10.9 km/h 13.7 mph /  22 km/h 83 % 0.0 in /  0 mm
08:02 8.8 °F /  -12.9 °C 6.1 °F /  -14.4 °C 1010.0 in /  34198.6 hPa SSW 6.8 mph /  10.9 km/h 13.7 mph /  22 km/h 83 % 0.0 in /  0 mm
08:07 8.7 °F /  -12.9 °C 6.0 °F /  -14.4 °C 1010.0 in /  34198.6 hPa South 6.1 mph /  9.8 km/h 9.0 mph /  14.5 km/h 83 % 0.0 in /  0 mm
08:12 8.7 °F /  -12.9 °C 6.0 °F /  -14.4 °C 1011.1 in /  34235.8 hPa South 5.5 mph /  8.9 km/h 9.0 mph /  14.5 km/h 83 % 0.0 in /  0 mm
08:16 8.6 °F /  -13 °C 5.9 °F /  -14.5 °C 1011.1 in /  34235.8 hPa South 5.1 mph /  8.2 km/h 7.9 mph /  12.7 km/h 83 % 0.0 in /  0 mm
08:19 8.5 °F /  -13.1 °C 5.8 °F /  -14.6 °C 1011.1 in /  34235.8 hPa South 4.8 mph /  7.7 km/h 7.6 mph /  12.2 km/h 83 % 0.3 in /  7.62 mm
08:20 8.5 °F /  -13.1 °C 5.8 °F /  -14.6 °C 1011.1 in /  34235.8 hPa South 4.8 mph /  7.7 km/h 7.6 mph /  12.2 km/h 83 % 0.3 in /  7.62 mm
08:21 8.5 °F /  -13.1 °C 5.8 °F /  -14.6 °C 1011.1 in /  34235.8 hPa South 4.8 mph /  7.7 km/h 7.6 mph /  12.2 km/h 83 % 0.3 in /  7.62 mm
08:26 8.5 °F /  -13.1 °C 5.8 °F /  -14.6 °C 1011.1 in /  34235.8 hPa SSW 4.7 mph /  7.6 km/h 6.9 mph /  11.1 km/h 83 % 0.3 in /  7.62 mm
08:27 8.5 °F /  -13.1 °C 5.8 °F /  -14.6 °C 1011.1 in /  34235.8 hPa SSW 4.5 mph /  7.2 km/h 6.9 mph /  11.1 km/h 83 % 0.3 in /  7.62 mm
08:28 8.5 °F /  -13.1 °C 5.8 °F /  -14.6 °C 1011.1 in /  34235.8 hPa SSW 4.7 mph /  7.6 km/h 6.9 mph /  11.1 km/h 83 % 0.3 in /  7.62 mm
08:32 8.4 °F /  -13.1 °C 5.7 °F /  -14.6 °C 1011.1 in /  34235.8 hPa SSW 4.8 mph /  7.7 km/h 6.9 mph /  11.1 km/h 83 % 0.3 in /  7.62 mm
08:37 8.4 °F /  -13.1 °C 5.8 °F /  -14.6 °C 1011.1 in /  34235.8 hPa South 5.3 mph /  8.5 km/h 8.7 mph /  14 km/h 84 % 0.3 in /  7.62 mm
08:39 8.4 °F /  -13.1 °C 5.8 °F /  -14.6 °C 1011.1 in /  34235.8 hPa South 5.0 mph /  8 km/h 8.7 mph /  14 km/h 84 % 0.3 in /  7.62 mm
08:44 8.2 °F /  -13.2 °C 5.7 °F /  -14.6 °C 1011.1 in /  34235.8 hPa SSW 4.3 mph /  6.9 km/h 8.7 mph /  14 km/h 84 % 0.3 in /  7.62 mm
08:45 8.2 °F /  -13.2 °C 5.7 °F /  -14.6 °C 1011.1 in /  34235.8 hPa SSW 4.3 mph /  6.9 km/h 8.7 mph /  14 km/h 84 % 0.3 in /  7.62 mm
08:50 8.2 °F /  -13.2 °C 5.7 °F /  -14.6 °C 1011.1 in /  34235.8 hPa WSW 3.7 mph /  6 km/h 5.5 mph /  8.9 km/h 84 % 0.3 in /  7.62 mm
08:51 8.2 °F /  -13.2 °C 5.7 °F /  -14.6 °C 1011.1 in /  34235.8 hPa WSW 3.9 mph /  6.3 km/h 5.5 mph /  8.9 km/h 84 % 0.3 in /  7.62 mm
08:55 8.1 °F /  -13.3 °C 5.6 °F /  -14.7 °C 1011.1 in /  34235.8 hPa WSW 3.7 mph /  6 km/h 5.5 mph /  8.9 km/h 84 % 0.3 in /  7.62 mm
08:58 8.1 °F /  -13.3 °C 5.6 °F /  -14.7 °C 1011.1 in /  34235.8 hPa WSW 3.1 mph /  5 km/h 5.5 mph /  8.9 km/h 84 % 0.3 in /  7.62 mm
09:00 8.1 °F /  -13.3 °C 5.6 °F /  -14.7 °C 1011.1 in /  34235.8 hPa WSW 2.4 mph /  3.9 km/h 4.7 mph /  7.6 km/h 84 % 0.3 in /  7.62 mm
09:04 8.1 °F /  -13.3 °C 5.7 °F /  -14.6 °C 1011.1 in /  34235.8 hPa SW 1.0 mph /  1.6 km/h 6.1 mph /  9.8 km/h 85 % 0.3 in /  7.62 mm
09:10 8.1 °F /  -13.3 °C 5.7 °F /  -14.6 °C 1011.1 in /  34235.8 hPa SW 2.7 mph /  4.3 km/h 6.1 mph /  9.8 km/h 85 % 0.3 in /  7.62 mm
09:13 8.1 °F /  -13.3 °C 5.7 °F /  -14.6 °C 1011.1 in /  34235.8 hPa SW 4.5 mph /  7.2 km/h 6.1 mph /  9.8 km/h 85 % 0.3 in /  7.62 mm
09:18 8.1 °F /  -13.3 °C 5.7 °F /  -14.6 °C 1011.1 in /  34235.8 hPa SW 4.7 mph /  7.6 km/h 6.9 mph /  11.1 km/h 85 % 0.0 in /  0 mm
09:23 8.2 °F /  -13.2 °C 6.0 °F /  -14.4 °C 1011.1 in /  34235.8 hPa WSW 5.0 mph /  8 km/h 6.9 mph /  11.1 km/h 86 % 0.0 in /  0 mm
09:24 8.2 °F /  -13.2 °C 6.0 °F /  -14.4 °C 1011.1 in /  34235.8 hPa WSW 4.7 mph /  7.6 km/h 6.9 mph /  11.1 km/h 86 % 0.0 in /  0 mm
09:26 8.2 °F /  -13.2 °C 6.0 °F /  -14.4 °C 1011.1 in /  34235.8 hPa WSW 4.0 mph /  6.4 km/h 6.9 mph /  11.1 km/h 86 % 0.0 in /  0 mm
09:31 8.2 °F /  -13.2 °C 6.0 °F /  -14.4 °C 1011.1 in /  34235.8 hPa SW 1.9 mph /  3.1 km/h 4.3 mph /  6.9 km/h 86 % 0.0 in /  0 mm
09:33 8.2 °F /  -13.2 °C 6.0 °F /  -14.4 °C 1011.1 in /  34235.8 hPa SW 1.3 mph /  2.1 km/h 4.0 mph /  6.4 km/h 86 % 0.0 in /  0 mm
09:38 8.1 °F /  -13.3 °C 5.9 °F /  -14.5 °C 1011.1 in /  34235.8 hPa North 0.2 mph /  0.3 km/h   86 % 0.0 in /  0 mm
09:42 8.2 °F /  -13.2 °C 6.0 °F /  -14.4 °C 1011.1 in /  34235.8 hPa Calm     86 % 0.0 in /  0 mm
09:44 8.2 °F /  -13.2 °C 6.0 °F /  -14.4 °C 1011.1 in /  34235.8 hPa Calm     86 % 0.0 in /  0 mm
09:49 8.2 °F /  -13.2 °C 6.2 °F /  -14.3 °C 1011.1 in /  34235.8 hPa Calm     87 % 0.0 in /  0 mm
09:54 8.2 °F /  -13.2 °C 6.2 °F /  -14.3 °C 1011.1 in /  34235.8 hPa Calm     87 % 0.0 in /  0 mm
09:59 8.2 °F /  -13.2 °C 6.2 °F /  -14.3 °C 1011.1 in /  34235.8 hPa Calm     87 % 0.0 in /  0 mm
10:02 8.2 °F /  -13.2 °C 6.2 °F /  -14.3 °C 1011.1 in /  34235.8 hPa Calm     87 % 0.0 in /  0 mm
10:03 8.2 °F /  -13.2 °C 6.2 °F /  -14.3 °C 1011.1 in /  34235.8 hPa Calm     87 % 0.0 in /  0 mm
10:08 8.2 °F /  -13.2 °C 6.2 °F /  -14.3 °C 1011.1 in /  34235.8 hPa Calm     87 % 0.0 in /  0 mm
10:09 8.2 °F /  -13.2 °C 6.3 °F /  -14.3 °C 1011.1 in /  34235.8 hPa Calm     88 % 0.0 in /  0 mm
10:12 8.2 °F /  -13.2 °C 6.3 °F /  -14.3 °C 1011.1 in /  34235.8 hPa Calm     88 % 0.0 in /  0 mm
10:15 8.2 °F /  -13.2 °C 6.3 °F /  -14.3 °C 1011.1 in /  34235.8 hPa Calm     88 % 0.0 in /  0 mm
10:20 8.2 °F /  -13.2 °C 6.3 °F /  -14.3 °C 1011.1 in /  34235.8 hPa Calm     88 % 0.3 in /  7.62 mm
10:23 8.2 °F /  -13.2 °C 6.3 °F /  -14.3 °C 1011.1 in /  34235.8 hPa Calm     88 % 0.3 in /  7.62 mm
10:24 8.2 °F /  -13.2 °C 6.3 °F /  -14.3 °C 1011.1 in /  34235.8 hPa Calm     88 % 0.3 in /  7.62 mm
10:29 8.2 °F /  -13.2 °C 6.3 °F /  -14.3 °C 1011.1 in /  34235.8 hPa Calm     88 % 0.3 in /  7.62 mm
10:33 8.2 °F /  -13.2 °C 6.5 °F /  -14.2 °C 1011.1 in /  34235.8 hPa Calm     89 % 0.3 in /  7.62 mm
10:34 8.2 °F /  -13.2 °C 6.5 °F /  -14.2 °C 1011.1 in /  34235.8 hPa Calm     89 % 0.3 in /  7.62 mm
10:39 8.1 °F /  -13.3 °C 6.4 °F /  -14.2 °C 1011.1 in /  34235.8 hPa Calm     89 % 0.3 in /  7.62 mm
10:41 8.1 °F /  -13.3 °C 6.4 °F /  -14.2 °C 1011.1 in /  34235.8 hPa Calm     89 % 0.3 in /  7.62 mm
10:42 8.1 °F /  -13.3 °C 6.4 °F /  -14.2 °C 1011.1 in /  34235.8 hPa Calm     89 % 0.3 in /  7.62 mm
10:47 8.1 °F /  -13.3 °C 6.4 °F /  -14.2 °C 1011.1 in /  34235.8 hPa Calm     89 % 0.3 in /  7.62 mm
10:50 8.1 °F /  -13.3 °C 6.4 °F /  -14.2 °C 1011.1 in /  34235.8 hPa Calm     89 % 0.3 in /  7.62 mm
10:55 8.2 °F /  -13.2 °C 6.7 °F /  -14.1 °C 1011.1 in /  34235.8 hPa Calm     90 % 0.3 in /  7.62 mm
11:00 8.2 °F /  -13.2 °C 6.7 °F /  -14.1 °C 1011.1 in /  34235.8 hPa Calm     90 % 0.3 in /  7.62 mm
11:05 8.2 °F /  -13.2 °C 6.7 °F /  -14.1 °C 1011.1 in /  34235.8 hPa Calm     90 % 0.3 in /  7.62 mm
11:06 8.2 °F /  -13.2 °C 6.7 °F /  -14.1 °C 1011.1 in /  34235.8 hPa Calm     90 % 0.3 in /  7.62 mm
11:11 8.2 °F /  -13.2 °C 6.7 °F /  -14.1 °C 1011.1 in /  34235.8 hPa Calm     90 % 0.3 in /  7.62 mm
11:12 8.3 °F /  -13.2 °C 6.8 °F /  -14 °C 1010.0 in /  34198.6 hPa Calm     90 % 0.3 in /  7.62 mm
11:17 8.3 °F /  -13.2 °C 6.8 °F /  -14 °C 1010.0 in /  34198.6 hPa Calm     90 % 0.0 in /  0 mm
11:19 8.3 °F /  -13.2 °C 6.9 °F /  -13.9 °C 1010.0 in /  34198.6 hPa Calm     91 % 0.0 in /  0 mm
11:24 8.4 °F /  -13.1 °C 7.0 °F /  -13.9 °C 1010.0 in /  34198.6 hPa Calm     91 % 0.0 in /  0 mm
11:26 8.4 °F /  -13.1 °C 7.0 °F /  -13.9 °C 1010.0 in /  34198.6 hPa Calm     91 % 0.0 in /  0 mm
11:31 8.4 °F /  -13.1 °C 7.0 °F /  -13.9 °C 1010.0 in /  34198.6 hPa Calm     91 % 0.0 in /  0 mm
11:35 8.5 °F /  -13.1 °C 7.1 °F /  -13.8 °C 1010.0 in /  34198.6 hPa Calm     91 % 0.0 in /  0 mm
11:40 8.5 °F /  -13.1 °C 7.1 °F /  -13.8 °C 1010.0 in /  34198.6 hPa Calm     91 % 0.0 in /  0 mm
11:42 8.5 °F /  -13.1 °C 7.1 °F /  -13.8 °C 1010.0 in /  34198.6 hPa Calm     91 % 0.0 in /  0 mm
11:47 8.5 °F /  -13.1 °C 7.1 °F /  -13.8 °C 1009.0 in /  34164.7 hPa Calm     91 % 0.0 in /  0 mm
11:49 8.5 °F /  -13.1 °C 7.1 °F /  -13.8 °C 1009.0 in /  34164.7 hPa Calm     91 % 0.0 in /  0 mm
11:54 8.5 °F /  -13.1 °C 7.3 °F /  -13.7 °C 1009.0 in /  34164.7 hPa Calm     92 % 0.0 in /  0 mm
11:59 8.6 °F /  -13 °C 7.4 °F /  -13.7 °C 1009.0 in /  34164.7 hPa Calm     92 % 0.0 in /  0 mm
12:02 8.6 °F /  -13 °C 7.4 °F /  -13.7 °C 1009.0 in /  34164.7 hPa Calm     92 % 0.0 in /  0 mm
12:07 8.6 °F /  -13 °C 7.4 °F /  -13.7 °C 1009.0 in /  34164.7 hPa Calm     92 % 0.0 in /  0 mm
12:10 8.6 °F /  -13 °C 7.4 °F /  -13.7 °C 1009.0 in /  34164.7 hPa Calm   2.6 mph /  4.2 km/h 92 % 0.0 in /  0 mm
12:15 8.6 °F /  -13 °C 7.4 °F /  -13.7 °C 1009.0 in /  34164.7 hPa Calm   2.6 mph /  4.2 km/h 92 % 0.0 in /  0 mm
12:20 8.6 °F /  -13 °C 7.4 °F /  -13.7 °C 1009.0 in /  34164.7 hPa Calm   2.1 mph /  3.4 km/h 92 % 0.0 in /  0 mm
12:22 8.6 °F /  -13 °C 7.4 °F /  -13.7 °C 1009.0 in /  34164.7 hPa Calm   2.1 mph /  3.4 km/h 92 % 0.0 in /  0 mm
12:27 8.5 °F /  -13.1 °C 7.3 °F /  -13.7 °C 1009.0 in /  34164.7 hPa Calm     92 % 0.0 in /  0 mm
12:29 8.5 °F /  -13.1 °C 7.3 °F /  -13.7 °C 1008.0 in /  34130.9 hPa Calm     92 % 0.0 in /  0 mm
12:32 8.6 °F /  -13 °C 7.4 °F /  -13.7 °C 1008.0 in /  34130.9 hPa Calm     92 % 0.0 in /  0 mm
12:37 8.6 °F /  -13 °C 7.4 °F /  -13.7 °C 1008.0 in /  34130.9 hPa Calm     92 % 0.0 in /  0 mm
12:40 8.6 °F /  -13 °C 7.4 °F /  -13.7 °C 1008.0 in /  34130.9 hPa Calm     92 % 0.0 in /  0 mm
12:45 8.6 °F /  -13 °C 7.4 °F /  -13.7 °C 1009.0 in /  34164.7 hPa Calm     92 % 0.0 in /  0 mm
12:46 8.6 °F /  -13 °C 7.4 °F /  -13.7 °C 1009.0 in /  34164.7 hPa Calm     92 % 0.0 in /  0 mm
12:51 8.7 °F /  -12.9 °C 7.5 °F /  -13.6 °C 1009.0 in /  34164.7 hPa Calm     92 % 0.0 in /  0 mm
12:56 8.7 °F /  -12.9 °C 7.5 °F /  -13.6 °C 1009.0 in /  34164.7 hPa Calm     92 % 0.0 in /  0 mm
12:57 8.7 °F /  -12.9 °C 7.5 °F /  -13.6 °C 1009.0 in /  34164.7 hPa Calm     92 % 0.0 in /  0 mm
13:00 8.7 °F /  -12.9 °C 7.5 °F /  -13.6 °C 1009.0 in /  34164.7 hPa Calm     92 % 0.0 in /  0 mm
13:03 8.7 °F /  -12.9 °C 7.5 °F /  -13.6 °C 1009.0 in /  34164.7 hPa Calm     92 % 0.0 in /  0 mm
13:05 8.8 °F /  -12.9 °C 7.6 °F /  -13.6 °C 1009.0 in /  34164.7 hPa Calm     92 % 0.0 in /  0 mm
13:10 8.8 °F /  -12.9 °C 7.6 °F /  -13.6 °C 1009.0 in /  34164.7 hPa South 0.3 mph /  0.5 km/h 3.5 mph /  5.6 km/h 92 % 0.0 in /  0 mm
13:11 8.8 °F /  -12.9 °C 7.6 °F /  -13.6 °C 1009.0 in /  34164.7 hPa SSW 0.6 mph /  1 km/h 3.5 mph /  5.6 km/h 92 % 0.0 in /  0 mm
13:16 8.9 °F /  -12.8 °C 7.8 °F /  -13.4 °C 1008.0 in /  34130.9 hPa SSW 1.6 mph /  2.6 km/h 4.0 mph /  6.4 km/h 93 % 0.0 in /  0 mm
13:21 8.9 °F /  -12.8 °C 7.8 °F /  -13.4 °C 1008.0 in /  34130.9 hPa SSW 1.1 mph /  1.8 km/h 4.0 mph /  6.4 km/h 93 % 0.0 in /  0 mm
13:24 8.9 °F /  -12.8 °C 7.8 °F /  -13.4 °C 1008.0 in /  34130.9 hPa SW 1.3 mph /  2.1 km/h 3.5 mph /  5.6 km/h 93 % 0.0 in /  0 mm
13:26 8.9 °F /  -12.8 °C 7.8 °F /  -13.4 °C 1008.0 in /  34130.9 hPa SW 0.8 mph /  1.3 km/h 3.5 mph /  5.6 km/h 93 % 0.0 in /  0 mm
13:31 9.0 °F /  -12.8 °C 7.8 °F /  -13.4 °C 1008.0 in /  34130.9 hPa SW 0.6 mph /  1 km/h 3.5 mph /  5.6 km/h 92 % 0.0 in /  0 mm
13:34 9.1 °F /  -12.7 °C 7.9 °F /  -13.4 °C 1008.0 in /  34130.9 hPa SSE 0.2 mph /  0.3 km/h 1.8 mph /  2.9 km/h 92 % 0.0 in /  0 mm
13:37 9.1 °F /  -12.7 °C 7.9 °F /  -13.4 °C 1008.0 in /  34130.9 hPa SSE 0.2 mph /  0.3 km/h 1.8 mph /  2.9 km/h 92 % 0.0 in /  0 mm
13:42 9.1 °F /  -12.7 °C 7.9 °F /  -13.4 °C 1008.0 in /  34130.9 hPa Calm     92 % 0.0 in /  0 mm
13:44 9.1 °F /  -12.7 °C 7.9 °F /  -13.4 °C 1008.0 in /  34130.9 hPa Calm     92 % 0.0 in /  0 mm
13:47 9.1 °F /  -12.7 °C 7.9 °F /  -13.4 °C 1008.0 in /  34130.9 hPa Calm     92 % 0.0 in /  0 mm
13:54 9.1 °F /  -12.7 °C 7.9 °F /  -13.4 °C 1008.0 in /  34130.9 hPa Calm     92 % 0.0 in /  0 mm
13:59 9.1 °F /  -12.7 °C 7.9 °F /  -13.4 °C 1008.0 in /  34130.9 hPa Calm     92 % 0.0 in /  0 mm
14:00 9.1 °F /  -12.7 °C 7.9 °F /  -13.4 °C 1008.0 in /  34130.9 hPa Calm     92 % 0.0 in /  0 mm
14:01 9.1 °F /  -12.7 °C 7.9 °F /  -13.4 °C 1008.0 in /  34130.9 hPa Calm     92 % 0.0 in /  0 mm
14:06 9.1 °F /  -12.7 °C 7.9 °F /  -13.4 °C 1008.0 in /  34130.9 hPa Calm     92 % 0.0 in /  0 mm
14:08 9.1 °F /  -12.7 °C 7.9 °F /  -13.4 °C 1008.0 in /  34130.9 hPa Calm     92 % 0.0 in /  0 mm
14:13 9.0 °F /  -12.8 °C 7.8 °F /  -13.4 °C 1008.0 in /  34130.9 hPa Calm     92 % 0.0 in /  0 mm
14:15 9.0 °F /  -12.8 °C 7.8 °F /  -13.4 °C 1008.0 in /  34130.9 hPa Calm     92 % 0.0 in /  0 mm
14:20 9.0 °F /  -12.8 °C 7.8 °F /  -13.4 °C 1008.0 in /  34130.9 hPa Calm     92 % 0.0 in /  0 mm
14:25 8.9 °F /  -12.8 °C 7.7 °F /  -13.5 °C 1008.0 in /  34130.9 hPa WSW 0.2 mph /  0.3 km/h 2.6 mph /  4.2 km/h 92 % 0.0 in /  0 mm
14:27 8.9 °F /  -12.8 °C 7.7 °F /  -13.5 °C 1008.0 in /  34130.9 hPa WSW 0.3 mph /  0.5 km/h 2.6 mph /  4.2 km/h 92 % 0.0 in /  0 mm
14:32 8.9 °F /  -12.8 °C 7.7 °F /  -13.5 °C 1008.0 in /  34130.9 hPa WSW 0.5 mph /  0.8 km/h 2.6 mph /  4.2 km/h 92 % 0.0 in /  0 mm
14:37 8.8 °F /  -12.9 °C 7.6 °F /  -13.6 °C 1008.0 in /  34130.9 hPa WSW 0.3 mph /  0.5 km/h 4.3 mph /  6.9 km/h 92 % 0.0 in /  0 mm
14:38 8.8 °F /  -12.9 °C 7.6 °F /  -13.6 °C 1008.0 in /  34130.9 hPa WSW 0.5 mph /  0.8 km/h 4.3 mph /  6.9 km/h 92 % 0.0 in /  0 mm
14:40 8.8 °F /  -12.9 °C 7.6 °F /  -13.6 °C 1008.0 in /  34130.9 hPa WSW 1.1 mph /  1.8 km/h 4.3 mph /  6.9 km/h 92 % 0.0 in /  0 mm
14:44 8.7 °F /  -12.9 °C 7.5 °F /  -13.6 °C 1008.0 in /  34130.9 hPa WSW 1.1 mph /  1.8 km/h 5.8 mph /  9.3 km/h 92 % 0.0 in /  0 mm
14:46 8.7 °F /  -12.9 °C 7.5 °F /  -13.6 °C 1008.0 in /  34130.9 hPa SW 2.1 mph /  3.4 km/h 9.0 mph /  14.5 km/h 92 % 0.0 in /  0 mm
14:51 8.7 °F /  -12.9 °C 7.5 °F /  -13.6 °C 1008.0 in /  34130.9 hPa SW 4.0 mph /  6.4 km/h 9.3 mph /  15 km/h 92 % 0.0 in /  0 mm
14:53 8.7 °F /  -12.9 °C 7.5 °F /  -13.6 °C 1008.0 in /  34130.9 hPa SW 4.7 mph /  7.6 km/h 9.3 mph /  15 km/h 92 % 0.3 in /  7.62 mm
14:58 8.7 °F /  -12.9 °C 7.5 °F /  -13.6 °C 1008.0 in /  34130.9 hPa WSW 4.8 mph /  7.7 km/h 9.3 mph /  15 km/h 92 % 1.0 in /  25.4 mm
14:59 8.7 °F /  -12.9 °C 7.5 °F /  -13.6 °C 1008.0 in /  34130.9 hPa WSW 4.5 mph /  7.2 km/h 9.3 mph /  15 km/h 92 % 1.0 in /  25.4 mm
15:04 8.6 °F /  -13 °C 7.4 °F /  -13.7 °C 1008.0 in /  34130.9 hPa NNW 3.4 mph /  5.5 km/h 8.7 mph /  14 km/h 92 % 1.5 in /  38.1 mm
15:08 8.5 °F /  -13.1 °C 7.3 °F /  -13.7 °C 1008.0 in /  34130.9 hPa NNE 2.1 mph /  3.4 km/h 8.7 mph /  14 km/h 92 % 1.8 in /  45.72 mm
15:09 8.4 °F /  -13.1 °C 7.2 °F /  -13.8 °C 1008.0 in /  34130.9 hPa NE 1.8 mph /  2.9 km/h 8.7 mph /  14 km/h 92 % 2.3 in /  58.42 mm
15:14 8.3 °F /  -13.2 °C 6.9 °F /  -13.9 °C 1009.0 in /  34164.7 hPa NE 3.9 mph /  6.3 km/h 12.2 mph /  19.6 km/h 91 % 2.5 in /  63.5 mm
15:17 8.2 °F /  -13.2 °C 6.8 °F /  -14 °C 1009.0 in /  34164.7 hPa ENE 5.5 mph /  8.9 km/h 12.2 mph /  19.6 km/h 91 % 3.0 in /  76.2 mm
15:22 7.9 °F /  -13.4 °C 6.5 °F /  -14.2 °C 1009.0 in /  34164.7 hPa ENE 8.5 mph /  13.7 km/h 23.3 mph /  37.5 km/h 91 % 3.8 in /  96.52 mm
15:27 7.7 °F /  -13.5 °C 6.2 °F /  -14.3 °C 1009.0 in /  34164.7 hPa ENE 7.9 mph /  12.7 km/h 23.3 mph /  37.5 km/h 90 % 4.1 in /  104.14 mm
15:29 7.5 °F /  -13.6 °C 5.9 °F /  -14.5 °C 1009.0 in /  34164.7 hPa NE 7.6 mph /  12.2 km/h 23.3 mph /  37.5 km/h 90 % 4.1 in /  104.14 mm
15:34 7.2 °F /  -13.8 °C 5.7 °F /  -14.6 °C 1009.0 in /  34164.7 hPa ENE 6.1 mph /  9.8 km/h 18.3 mph /  29.5 km/h 90 % 4.6 in /  116.84 mm
15:36 7.0 °F /  -13.9 °C 5.3 °F /  -14.8 °C 1009.0 in /  34164.7 hPa ENE 7.7 mph /  12.4 km/h 22.7 mph /  36.5 km/h 89 % 4.8 in /  121.92 mm
15:41 6.7 °F /  -14.1 °C 4.8 °F /  -15.1 °C 1009.0 in /  34164.7 hPa ENE 10.5 mph /  16.9 km/h 22.7 mph /  36.5 km/h 88 % 5.1 in /  129.54 mm
15:43 6.5 °F /  -14.2 °C 4.7 °F /  -15.2 °C 1010.0 in /  34198.6 hPa ENE 10.3 mph /  16.6 km/h 22.7 mph /  36.5 km/h 88 % 5.1 in /  129.54 mm
15:48 6.4 °F /  -14.2 °C 4.4 °F /  -15.3 °C 1010.0 in /  34198.6 hPa ENE 8.8 mph /  14.2 km/h 16.9 mph /  27.2 km/h 87 % 5.3 in /  134.62 mm
15:52 6.3 °F /  -14.3 °C 4.3 °F /  -15.4 °C 1010.0 in /  34198.6 hPa ENE 8.5 mph /  13.7 km/h 16.9 mph /  27.2 km/h 87 % 5.6 in /  142.24 mm
15:57 6.0 °F /  -14.4 °C 4.0 °F /  -15.6 °C 1010.0 in /  34198.6 hPa ENE 8.8 mph /  14.2 km/h 23.8 mph /  38.3 km/h 87 % 5.1 in /  129.54 mm
16:01 5.8 °F /  -14.6 °C 3.8 °F /  -15.7 °C 1008.0 in /  34130.9 hPa ENE 13.0 mph /  20.9 km/h 28.5 mph /  45.9 km/h 87 % 5.1 in /  129.54 mm
16:08 5.7 °F /  -14.6 °C 3.6 °F /  -15.8 °C 1008.0 in /  34130.9 hPa NE 10.8 mph /  17.4 km/h 28.5 mph /  45.9 km/h 86 % 4.3 in /  109.22 mm
16:14 5.5 °F /  -14.7 °C 3.3 °F /  -15.9 °C 1008.0 in /  34130.9 hPa ENE 8.5 mph /  13.7 km/h 20.1 mph /  32.3 km/h 86 % 4.3 in /  109.22 mm
16:19 5.4 °F /  -14.8 °C 3.2 °F /  -16 °C 1008.0 in /  34130.9 hPa NE 6.9 mph /  11.1 km/h 20.1 mph /  32.3 km/h 86 % 3.8 in /  96.52 mm
16:23 5.4 °F /  -14.8 °C 3.2 °F /  -16 °C 1008.0 in /  34130.9 hPa ENE 9.3 mph /  15 km/h 11.9 mph /  19.2 km/h 86 % 3.0 in /  76.2 mm
16:24 5.4 °F /  -14.8 °C 3.2 °F /  -16 °C 1008.0 in /  34130.9 hPa ENE 8.2 mph /  13.2 km/h 11.9 mph /  19.2 km/h 86 % 3.3 in /  83.82 mm
16:25 5.4 °F /  -14.8 °C 3.2 °F /  -16 °C 1008.0 in /  34130.9 hPa East 7.1 mph /  11.4 km/h 7.1 mph /  11.4 km/h 86 % 3.3 in /  83.82 mm
16:26 5.4 °F /  -14.8 °C 3.2 °F /  -16 °C 1008.0 in /  34130.9 hPa East 6.4 mph /  10.3 km/h 6.4 mph /  10.3 km/h 86 % 3.3 in /  83.82 mm
16:27 5.4 °F /  -14.8 °C 3.2 °F /  -16 °C 1008.0 in /  34130.9 hPa East 5.6 mph /  9 km/h 5.6 mph /  9 km/h 86 % 3.3 in /  83.82 mm
16:28 5.3 °F /  -14.8 °C 3.2 °F /  -16 °C 1008.0 in /  34130.9 hPa ESE 5.1 mph /  8.2 km/h 6.1 mph /  9.8 km/h 86 % 3.3 in /  83.82 mm
16:29 5.3 °F /  -14.8 °C 3.2 °F /  -16 °C 1008.0 in /  34130.9 hPa ESE 5.1 mph /  8.2 km/h 6.1 mph /  9.8 km/h 86 % 3.6 in /  91.44 mm
16:30 5.3 °F /  -14.8 °C 3.2 °F /  -16 °C 1008.0 in /  34130.9 hPa SSW 4.7 mph /  7.6 km/h 6.1 mph /  9.8 km/h 86 % 3.6 in /  91.44 mm
16:31 5.3 °F /  -14.8 °C 3.2 °F /  -16 °C 1008.0 in /  34130.9 hPa SW 4.3 mph /  6.9 km/h 6.4 mph /  10.3 km/h 86 % 3.0 in /  76.2 mm
16:32 5.2 °F /  -14.9 °C 3.1 °F /  -16.1 °C 1008.0 in /  34130.9 hPa WSW 4.3 mph /  6.9 km/h 6.4 mph /  10.3 km/h 86 % 3.3 in /  83.82 mm
16:33 5.2 °F /  -14.9 °C 3.1 °F /  -16.1 °C 1008.0 in /  34130.9 hPa West 3.4 mph /  5.5 km/h 6.4 mph /  10.3 km/h 86 % 3.3 in /  83.82 mm
16:34 5.2 °F /  -14.9 °C 3.1 °F /  -16.1 °C 1008.0 in /  34130.9 hPa WSW 3.2 mph /  5.1 km/h 6.4 mph /  10.3 km/h 86 % 3.6 in /  91.44 mm
16:35 5.2 °F /  -14.9 °C 3.1 °F /  -16.1 °C 1008.0 in /  34130.9 hPa SW 3.2 mph /  5.1 km/h 6.4 mph /  10.3 km/h 86 % 3.6 in /  91.44 mm
16:36 5.2 °F /  -14.9 °C 3.1 °F /  -16.1 °C 1008.0 in /  34130.9 hPa SW 3.2 mph /  5.1 km/h 6.4 mph /  10.3 km/h 86 % 3.0 in /  76.2 mm
16:37 5.1 °F /  -14.9 °C 2.9 °F /  -16.2 °C 1008.0 in /  34130.9 hPa SW 3.4 mph /  5.5 km/h 6.4 mph /  10.3 km/h 86 % 3.0 in /  76.2 mm
16:38 5.1 °F /  -14.9 °C 2.9 °F /  -16.2 °C 1008.0 in /  34130.9 hPa SSW 3.5 mph /  5.6 km/h 6.4 mph /  10.3 km/h 86 % 3.3 in /  83.82 mm
16:39 5.1 °F /  -14.9 °C 2.9 °F /  -16.2 °C 1008.0 in /  34130.9 hPa SSE 3.4 mph /  5.5 km/h 6.4 mph /  10.3 km/h 86 % 3.3 in /  83.82 mm
16:40 5.1 °F /  -14.9 °C 2.9 °F /  -16.2 °C 1008.0 in /  34130.9 hPa SE 3.7 mph /  6 km/h 6.4 mph /  10.3 km/h 86 % 3.6 in /  91.44 mm
16:41 5.1 °F /  -14.9 °C 2.9 °F /  -16.2 °C 1008.0 in /  34130.9 hPa ESE 4.3 mph /  6.9 km/h 6.4 mph /  10.3 km/h 86 % 3.0 in /  76.2 mm
16:42 5.1 °F /  -14.9 °C 2.9 °F /  -16.2 °C 1008.0 in /  34130.9 hPa ESE 4.3 mph /  6.9 km/h 6.4 mph /  10.3 km/h 86 % 3.3 in /  83.82 mm
16:43 5.1 °F /  -14.9 °C 2.9 °F /  -16.2 °C 1008.0 in /  34130.9 hPa ESE 4.3 mph /  6.9 km/h 9.3 mph /  15 km/h 86 % 3.3 in /  83.82 mm
16:44 5.1 °F /  -14.9 °C 2.9 °F /  -16.2 °C 1008.0 in /  34130.9 hPa East 5.0 mph /  8 km/h 9.3 mph /  15 km/h 86 % 3.3 in /  83.82 mm
16:45 5.1 °F /  -14.9 °C 2.9 °F /  -16.2 °C 1009.0 in /  34164.7 hPa East 5.8 mph /  9.3 km/h 9.3 mph /  15 km/h 86 % 3.3 in /  83.82 mm
16:46 5.1 °F /  -14.9 °C 2.9 °F /  -16.2 °C 1009.0 in /  34164.7 hPa East 6.1 mph /  9.8 km/h 9.3 mph /  15 km/h 86 % 3.0 in /  76.2 mm
16:47 5.1 °F /  -14.9 °C 2.9 °F /  -16.2 °C 1009.0 in /  34164.7 hPa ENE 6.1 mph /  9.8 km/h 9.3 mph /  15 km/h 86 % 3.0 in /  76.2 mm
16:48 5.1 °F /  -14.9 °C 2.9 °F /  -16.2 °C 1009.0 in /  34164.7 hPa East 6.1 mph /  9.8 km/h 9.3 mph /  15 km/h 86 % 3.0 in /  76.2 mm
16:49 5.1 °F /  -14.9 °C 2.9 °F /  -16.2 °C 1009.0 in /  34164.7 hPa ENE 6.4 mph /  10.3 km/h 9.3 mph /  15 km/h 86 % 3.0 in /  76.2 mm
16:50 5.1 °F /  -14.9 °C 2.9 °F /  -16.2 °C 1009.0 in /  34164.7 hPa ENE 6.1 mph /  9.8 km/h 9.3 mph /  15 km/h 86 % 3.3 in /  83.82 mm
16:51 5.1 °F /  -14.9 °C 2.9 °F /  -16.2 °C 1009.0 in /  34164.7 hPa East 6.0 mph /  9.7 km/h 9.3 mph /  15 km/h 86 % 3.0 in /  76.2 mm
16:52 5.0 °F /  -15 °C 2.8 °F /  -16.2 °C 1009.0 in /  34164.7 hPa East 6.0 mph /  9.7 km/h 9.3 mph /  15 km/h 86 % 3.3 in /  83.82 mm
16:53 5.0 °F /  -15 °C 2.8 °F /  -16.2 °C 1009.0 in /  34164.7 hPa East 6.4 mph /  10.3 km/h 9.0 mph /  14.5 km/h 86 % 3.3 in /  83.82 mm
16:54 5.0 °F /  -15 °C 2.8 °F /  -16.2 °C 1009.0 in /  34164.7 hPa ESE 6.0 mph /  9.7 km/h 6.9 mph /  11.1 km/h 86 % 3.6 in /  91.44 mm
16:55 5.0 °F /  -15 °C 2.8 °F /  -16.2 °C 1009.0 in /  34164.7 hPa East 5.6 mph /  9 km/h 9.0 mph /  14.5 km/h 86 % 3.6 in /  91.44 mm
16:56 5.0 °F /  -15 °C 2.8 °F /  -16.2 °C 1009.0 in /  34164.7 hPa East 5.6 mph /  9 km/h 9.0 mph /  14.5 km/h 86 % 3.3 in /  83.82 mm
16:57 5.1 °F /  -14.9 °C 2.9 °F /  -16.2 °C 1009.0 in /  34164.7 hPa East 5.6 mph /  9 km/h 10.1 mph /  16.3 km/h 86 % 3.3 in /  83.82 mm
16:58 5.1 °F /  -14.9 °C 2.9 °F /  -16.2 °C 1009.0 in /  34164.7 hPa ESE 5.8 mph /  9.3 km/h 10.1 mph /  16.3 km/h 86 % 3.6 in /  91.44 mm
16:59 5.1 °F /  -14.9 °C 2.9 °F /  -16.2 °C 1009.0 in /  34164.7 hPa ESE 5.8 mph /  9.3 km/h 10.1 mph /  16.3 km/h 86 % 3.6 in /  91.44 mm
17:00 5.1 °F /  -14.9 °C 2.9 °F /  -16.2 °C 1009.0 in /  34164.7 hPa ESE 6.0 mph /  9.7 km/h 10.1 mph /  16.3 km/h 86 % 3.6 in /  91.44 mm
17:01 5.1 °F /  -14.9 °C 2.9 °F /  -16.2 °C 1009.0 in /  34164.7 hPa ESE 6.0 mph /  9.7 km/h 10.1 mph /  16.3 km/h 86 % 3.6 in /  91.44 mm
17:02 5.1 °F /  -14.9 °C 2.9 °F /  -16.2 °C 1009.0 in /  34164.7 hPa East 6.0 mph /  9.7 km/h 10.1 mph /  16.3 km/h 86 % 3.6 in /  91.44 mm
17:03 5.1 °F /  -14.9 °C 2.9 °F /  -16.2 °C 1009.0 in /  34164.7 hPa ESE 6.0 mph /  9.7 km/h 10.1 mph /  16.3 km/h 86 % 3.6 in /  91.44 mm
17:04 5.1 °F /  -14.9 °C 2.9 °F /  -16.2 °C 1009.0 in /  34164.7 hPa ESE 5.8 mph /  9.3 km/h 10.1 mph /  16.3 km/h 86 % 3.6 in /  91.44 mm
17:05 5.1 °F /  -14.9 °C 2.9 °F /  -16.2 °C 1009.0 in /  34164.7 hPa ESE 5.8 mph /  9.3 km/h 12.6 mph /  20.3 km/h 86 % 3.6 in /  91.44 mm
17:06 5.1 °F /  -14.9 °C 2.9 °F /  -16.2 °C 1009.0 in /  34164.7 hPa ESE 6.1 mph /  9.8 km/h 12.6 mph /  20.3 km/h 86 % 3.3 in /  83.82 mm
17:07 5.1 °F /  -14.9 °C 2.9 °F /  -16.2 °C 1009.0 in /  34164.7 hPa ESE 6.3 mph /  10.1 km/h 12.6 mph /  20.3 km/h 86 % 3.3 in /  83.82 mm
17:17 5.1 °F /  -14.9 °C 2.9 °F /  -16.2 °C 1009.0 in /  34164.7 hPa ESE 6.3 mph /  10.1 km/h 12.6 mph /  20.3 km/h 86 % 3.3 in /  83.82 mm
17:20 5.0 °F /  -15 °C 2.8 °F /  -16.2 °C 1009.0 in /  34164.7 hPa ESE 5.3 mph /  8.5 km/h 11.9 mph /  19.2 km/h 86 % 3.0 in /  76.2 mm
17:25 5.1 °F /  -14.9 °C 2.9 °F /  -16.2 °C 1009.0 in /  34164.7 hPa East 5.5 mph /  8.9 km/h 11.9 mph /  19.2 km/h 86 % 2.5 in /  63.5 mm
17:26 5.1 °F /  -14.9 °C 2.9 °F /  -16.2 °C 1009.0 in /  34164.7 hPa East 5.3 mph /  8.5 km/h 11.9 mph /  19.2 km/h 86 % 2.5 in /  63.5 mm
17:30 5.1 °F /  -14.9 °C 2.9 °F /  -16.2 °C 1010.0 in /  34198.6 hPa ESE 3.9 mph /  6.3 km/h 7.9 mph /  12.7 km/h 86 % 2.0 in /  50.8 mm
17:34 5.1 °F /  -14.9 °C 2.9 °F /  -16.2 °C 1010.0 in /  34198.6 hPa SE 3.5 mph /  5.6 km/h 9.0 mph /  14.5 km/h 86 % 2.0 in /  50.8 mm
17:37 5.1 °F /  -14.9 °C 2.9 °F /  -16.2 °C 1010.0 in /  34198.6 hPa SE 5.0 mph /  8 km/h 11.1 mph /  17.9 km/h 86 % 1.8 in /  45.72 mm
17:42 5.1 °F /  -14.9 °C 2.9 °F /  -16.2 °C 1009.0 in /  34164.7 hPa ESE 5.3 mph /  8.5 km/h 11.1 mph /  17.9 km/h 86 % 1.3 in /  33.02 mm
17:47 5.1 °F /  -14.9 °C 2.9 °F /  -16.2 °C 1009.0 in /  34164.7 hPa ESE 4.8 mph /  7.7 km/h 11.9 mph /  19.2 km/h 86 % 1.0 in /  25.4 mm
17:48 5.1 °F /  -14.9 °C 2.9 °F /  -16.2 °C 1009.0 in /  34164.7 hPa ESE 5.1 mph /  8.2 km/h 11.9 mph /  19.2 km/h 86 % 1.0 in /  25.4 mm
17:53 5.3 °F /  -14.8 °C 3.2 °F /  -16 °C 1009.0 in /  34164.7 hPa East 7.1 mph /  11.4 km/h 12.2 mph /  19.6 km/h 86 % 0.8 in /  20.32 mm
17:55 5.3 °F /  -14.8 °C 3.2 °F /  -16 °C 1009.0 in /  34164.7 hPa East 7.1 mph /  11.4 km/h 12.6 mph /  20.3 km/h 86 % 0.5 in /  12.7 mm
17:57 5.3 °F /  -14.8 °C 3.2 °F /  -16 °C 1009.0 in /  34164.7 hPa East 6.9 mph /  11.1 km/h 12.6 mph /  20.3 km/h 86 % 0.3 in /  7.62 mm
18:02 5.3 °F /  -14.8 °C 3.2 °F /  -16 °C 1009.0 in /  34164.7 hPa East 5.5 mph /  8.9 km/h 12.6 mph /  20.3 km/h 86 % 0.0 in /  0 mm
18:03 5.3 °F /  -14.8 °C 3.2 °F /  -16 °C 1009.0 in /  34164.7 hPa East 4.8 mph /  7.7 km/h 12.6 mph /  20.3 km/h 86 % 0.0 in /  0 mm
18:04 5.3 °F /  -14.8 °C 3.2 °F /  -16 °C 1009.0 in /  34164.7 hPa ESE 4.5 mph /  7.2 km/h 12.6 mph /  20.3 km/h 86 % 0.3 in /  7.62 mm
18:09 5.3 °F /  -14.8 °C 3.2 °F /  -16 °C 1009.0 in /  34164.7 hPa South 4.2 mph /  6.8 km/h 6.9 mph /  11.1 km/h 86 % 0.3 in /  7.62 mm
18:14 5.3 °F /  -14.8 °C 3.2 °F /  -16 °C 1009.0 in /  34164.7 hPa South 3.5 mph /  5.6 km/h 6.9 mph /  11.1 km/h 86 % 0.3 in /  7.62 mm
18:17 5.2 °F /  -14.9 °C 3.1 °F /  -16.1 °C 1009.0 in /  34164.7 hPa South 3.5 mph /  5.6 km/h 17.7 mph /  28.5 km/h 86 % 0.3 in /  7.62 mm
18:19 5.3 °F /  -14.8 °C 3.2 °F /  -16 °C 1009.0 in /  34164.7 hPa ESE 4.5 mph /  7.2 km/h 17.7 mph /  28.5 km/h 86 % 0.3 in /  7.62 mm
18:24 5.3 °F /  -14.8 °C 3.2 °F /  -16 °C 1009.0 in /  34164.7 hPa ESE 5.3 mph /  8.5 km/h 17.7 mph /  28.5 km/h 86 % 0.3 in /  7.62 mm
18:26 5.3 °F /  -14.8 °C 3.2 °F /  -16 °C 1009.0 in /  34164.7 hPa ESE 5.6 mph /  9 km/h 17.7 mph /  28.5 km/h 86 % 0.3 in /  7.62 mm
18:29 5.3 °F /  -14.8 °C 3.2 °F /  -16 °C 1009.0 in /  34164.7 hPa SE 4.5 mph /  7.2 km/h 7.9 mph /  12.7 km/h 86 % 0.3 in /  7.62 mm
18:34 5.3 °F /  -14.8 °C 3.2 °F /  -16 °C 1009.0 in /  34164.7 hPa SE 4.5 mph /  7.2 km/h 7.6 mph /  12.2 km/h 86 % 0.3 in /  7.62 mm
18:35 5.3 °F /  -14.8 °C 3.2 °F /  -16 °C 1009.0 in /  34164.7 hPa SE 4.5 mph /  7.2 km/h 9.3 mph /  15 km/h 86 % 0.3 in /  7.62 mm
18:40 5.3 °F /  -14.8 °C 3.2 °F /  -16 °C 1009.0 in /  34164.7 hPa ESE 6.1 mph /  9.8 km/h 11.6 mph /  18.7 km/h 86 % 0.3 in /  7.62 mm
18:41 5.3 °F /  -14.8 °C 3.2 °F /  -16 °C 1009.0 in /  34164.7 hPa ESE 6.1 mph /  9.8 km/h 11.6 mph /  18.7 km/h 86 % 0.3 in /  7.62 mm
18:42 5.3 °F /  -14.8 °C 3.2 °F /  -16 °C 1009.0 in /  34164.7 hPa ESE 6.3 mph /  10.1 km/h 11.6 mph /  18.7 km/h 86 % 0.3 in /  7.62 mm
18:47 5.4 °F /  -14.8 °C 3.2 °F /  -16 °C 1009.0 in /  34164.7 hPa ESE 6.1 mph /  9.8 km/h 11.6 mph /  18.7 km/h 86 % 0.3 in /  7.62 mm
18:49 5.4 °F /  -14.8 °C 3.2 °F /  -16 °C 1009.0 in /  34164.7 hPa ESE 6.1 mph /  9.8 km/h 10.5 mph /  16.9 km/h 86 % 0.3 in /  7.62 mm
18:54 5.3 °F /  -14.8 °C 3.2 °F /  -16 °C 1009.0 in /  34164.7 hPa East 4.8 mph /  7.7 km/h 10.5 mph /  16.9 km/h 86 % 0.3 in /  7.62 mm
18:58 5.2 °F /  -14.9 °C 3.1 °F /  -16.1 °C 1009.0 in /  34164.7 hPa NNE 3.7 mph /  6 km/h 10.1 mph /  16.3 km/h 86 % 0.3 in /  7.62 mm
19:00 5.1 °F /  -14.9 °C 2.9 °F /  -16.2 °C 1009.0 in /  34164.7 hPa North 2.3 mph /  3.7 km/h 5.8 mph /  9.3 km/h 86 % 0.3 in /  7.62 mm
19:05 5.1 °F /  -14.9 °C 2.9 °F /  -16.2 °C 1009.0 in /  34164.7 hPa North 1.8 mph /  2.9 km/h 5.0 mph /  8 km/h 86 % 0.0 in /  0 mm
19:06 5.0 °F /  -15 °C 2.8 °F /  -16.2 °C 1009.0 in /  34164.7 hPa NNE 1.8 mph /  2.9 km/h 5.0 mph /  8 km/h 86 % 0.0 in /  0 mm
19:10 5.0 °F /  -15 °C 3.0 °F /  -16.1 °C 1009.0 in /  34164.7 hPa NE 1.1 mph /  1.8 km/h 5.0 mph /  8 km/h 87 % 0.0 in /  0 mm
19:12 5.0 °F /  -15 °C 3.0 °F /  -16.1 °C 1009.0 in /  34164.7 hPa North 1.1 mph /  1.8 km/h 4.3 mph /  6.9 km/h 87 % 0.0 in /  0 mm
19:17 4.9 °F /  -15.1 °C 2.9 °F /  -16.2 °C 1008.0 in /  34130.9 hPa SW 1.8 mph /  2.9 km/h 6.1 mph /  9.8 km/h 87 % 0.0 in /  0 mm
19:19 4.9 °F /  -15.1 °C 2.9 °F /  -16.2 °C 1008.0 in /  34130.9 hPa SW 2.4 mph /  3.9 km/h 6.1 mph /  9.8 km/h 87 % 0.0 in /  0 mm
19:24 4.9 °F /  -15.1 °C 2.9 °F /  -16.2 °C 1008.0 in /  34130.9 hPa South 3.2 mph /  5.1 km/h 6.1 mph /  9.8 km/h 87 % 0.0 in /  0 mm
19:27 4.9 °F /  -15.1 °C 2.9 °F /  -16.2 °C 1008.0 in /  34130.9 hPa SSE 2.6 mph /  4.2 km/h 4.7 mph /  7.6 km/h 87 % 0.0 in /  0 mm
19:32 5.0 °F /  -15 °C 3.0 °F /  -16.1 °C 1008.0 in /  34130.9 hPa SSW 2.9 mph /  4.7 km/h 8.7 mph /  14 km/h 87 % 0.3 in /  7.62 mm
19:37 5.0 °F /  -15 °C 3.0 °F /  -16.1 °C 1008.0 in /  34130.9 hPa SSW 3.4 mph /  5.5 km/h 8.7 mph /  14 km/h 87 % 0.3 in /  7.62 mm
19:42 4.9 °F /  -15.1 °C 3.1 °F /  -16.1 °C 1008.0 in /  34130.9 hPa NE 1.9 mph /  3.1 km/h 7.6 mph /  12.2 km/h 88 % 0.3 in /  7.62 mm
19:43 4.9 °F /  -15.1 °C 3.1 °F /  -16.1 °C 1008.0 in /  34130.9 hPa NNE 1.9 mph /  3.1 km/h 7.6 mph /  12.2 km/h 88 % 0.3 in /  7.62 mm
19:48 5.0 °F /  -15 °C 3.2 °F /  -16 °C 1008.0 in /  34130.9 hPa East 1.4 mph /  2.3 km/h 7.9 mph /  12.7 km/h 88 % 0.3 in /  7.62 mm
19:49 5.0 °F /  -15 °C 3.2 °F /  -16 °C 1008.0 in /  34130.9 hPa East 1.4 mph /  2.3 km/h 7.9 mph /  12.7 km/h 88 % 0.3 in /  7.62 mm
19:50 5.0 °F /  -15 °C 3.2 °F /  -16 °C 1008.0 in /  34130.9 hPa ESE 1.4 mph /  2.3 km/h 7.9 mph /  12.7 km/h 88 % 0.3 in /  7.62 mm
19:55 5.0 °F /  -15 °C 3.2 °F /  -16 °C 1008.0 in /  34130.9 hPa East 0.8 mph /  1.3 km/h 5.0 mph /  8 km/h 88 % 0.5 in /  12.7 mm
19:58 5.0 °F /  -15 °C 3.2 °F /  -16 °C 1008.0 in /  34130.9 hPa SE 0.5 mph /  0.8 km/h 5.0 mph /  8 km/h 88 % 0.5 in /  12.7 mm
20:01 5.0 °F /  -15 °C 3.2 °F /  -16 °C 1008.0 in /  34130.9 hPa SE 1.0 mph /  1.6 km/h 5.0 mph /  8 km/h 88 % 0.5 in /  12.7 mm
20:06 5.0 °F /  -15 °C 3.2 °F /  -16 °C 1008.0 in /  34130.9 hPa SSW 1.0 mph /  1.6 km/h 7.6 mph /  12.2 km/h 88 % 0.5 in /  12.7 mm
20:09 5.0 °F /  -15 °C 3.2 °F /  -16 °C 1008.0 in /  34130.9 hPa NNE 2.1 mph /  3.4 km/h 7.6 mph /  12.2 km/h 88 % 0.5 in /  12.7 mm
20:12 4.9 °F /  -15.1 °C 3.2 °F /  -16 °C 1008.0 in /  34130.9 hPa North 2.7 mph /  4.3 km/h 7.6 mph /  12.2 km/h 89 % 0.5 in /  12.7 mm
20:17 4.9 °F /  -15.1 °C 3.2 °F /  -16 °C 1007.0 in /  34097 hPa North 2.4 mph /  3.9 km/h 5.8 mph /  9.3 km/h 89 % 0.5 in /  12.7 mm
20:18 4.9 °F /  -15.1 °C 3.2 °F /  -16 °C 1007.0 in /  34097 hPa NNW 2.1 mph /  3.4 km/h 5.8 mph /  9.3 km/h 89 % 0.5 in /  12.7 mm
20:19 4.9 °F /  -15.1 °C 3.2 °F /  -16 °C 1007.0 in /  34097 hPa NNW 2.1 mph /  3.4 km/h 5.8 mph /  9.3 km/h 89 % 0.5 in /  12.7 mm
20:24 5.0 °F /  -15 °C 3.3 °F /  -15.9 °C 1007.0 in /  34097 hPa East 1.4 mph /  2.3 km/h 6.9 mph /  11.1 km/h 89 % 0.5 in /  12.7 mm
20:29 5.1 °F /  -14.9 °C 3.4 °F /  -15.9 °C 1007.0 in /  34097 hPa ESE 3.1 mph /  5 km/h 6.9 mph /  11.1 km/h 89 % 0.5 in /  12.7 mm
20:30 5.1 °F /  -14.9 °C 3.4 °F /  -15.9 °C 1007.0 in /  34097 hPa ESE 3.1 mph /  5 km/h 6.9 mph /  11.1 km/h 89 % 0.3 in /  7.62 mm
20:35 5.1 °F /  -14.9 °C 3.4 °F /  -15.9 °C 1007.0 in /  34097 hPa SE 3.7 mph /  6 km/h 6.4 mph /  10.3 km/h 89 % 0.3 in /  7.62 mm
20:38 5.1 °F /  -14.9 °C 3.4 °F /  -15.9 °C 1007.0 in /  34097 hPa SE 3.2 mph /  5.1 km/h 5.8 mph /  9.3 km/h 89 % 0.3 in /  7.62 mm
20:43 5.1 °F /  -14.9 °C 3.4 °F /  -15.9 °C 1007.0 in /  34097 hPa ESE 3.9 mph /  6.3 km/h 6.9 mph /  11.1 km/h 89 % 0.3 in /  7.62 mm
20:46 5.2 °F /  -14.9 °C 3.7 °F /  -15.7 °C 1007.0 in /  34097 hPa ESE 3.9 mph /  6.3 km/h 8.7 mph /  14 km/h 90 % 0.3 in /  7.62 mm
20:47 5.2 °F /  -14.9 °C 3.7 °F /  -15.7 °C 1007.0 in /  34097 hPa ESE 3.9 mph /  6.3 km/h 8.7 mph /  14 km/h 90 % 0.3 in /  7.62 mm
20:52 5.3 °F /  -14.8 °C 3.8 °F /  -15.7 °C 1007.0 in /  34097 hPa East 5.5 mph /  8.9 km/h 9.0 mph /  14.5 km/h 90 % 0.0 in /  0 mm
20:57 5.3 °F /  -14.8 °C 3.8 °F /  -15.7 °C 1007.0 in /  34097 hPa East 5.8 mph /  9.3 km/h 12.6 mph /  20.3 km/h 90 % 0.0 in /  0 mm
20:58 5.3 °F /  -14.8 °C 3.8 °F /  -15.7 °C 1007.0 in /  34097 hPa East 6.0 mph /  9.7 km/h 12.6 mph /  20.3 km/h 90 % 0.0 in /  0 mm
21:02 5.3 °F /  -14.8 °C 3.8 °F /  -15.7 °C 1007.0 in /  34097 hPa East 5.0 mph /  8 km/h 12.6 mph /  20.3 km/h 90 % 0.0 in /  0 mm
21:07 5.4 °F /  -14.8 °C 3.9 °F /  -15.6 °C 1007.0 in /  34097 hPa East 5.3 mph /  8.5 km/h 10.5 mph /  16.9 km/h 90 % 0.0 in /  0 mm
21:12 5.4 °F /  -14.8 °C 3.9 °F /  -15.6 °C 1007.0 in /  34097 hPa East 5.1 mph /  8.2 km/h 10.5 mph /  16.9 km/h 90 % 0.0 in /  0 mm
21:17 5.4 °F /  -14.8 °C 3.9 °F /  -15.6 °C 1007.0 in /  34097 hPa ESE 4.7 mph /  7.6 km/h 10.1 mph /  16.3 km/h 90 % 0.0 in /  0 mm
21:19 5.4 °F /  -14.8 °C 3.9 °F /  -15.6 °C 1007.0 in /  34097 hPa East 5.1 mph /  8.2 km/h 10.1 mph /  16.3 km/h 90 % 0.0 in /  0 mm
21:21 5.4 °F /  -14.8 °C 3.9 °F /  -15.6 °C 1007.0 in /  34097 hPa East 5.1 mph /  8.2 km/h 10.1 mph /  16.3 km/h 90 % 0.0 in /  0 mm
21:25 5.5 °F /  -14.7 °C 4.0 °F /  -15.6 °C 1007.0 in /  34097 hPa ENE 6.1 mph /  9.8 km/h 10.1 mph /  16.3 km/h 90 % 0.0 in /  0 mm
21:30 5.6 °F /  -14.7 °C 4.1 °F /  -15.5 °C 1007.0 in /  34097 hPa NE 4.2 mph /  6.8 km/h 9.0 mph /  14.5 km/h 90 % 0.0 in /  0 mm
21:35 5.6 °F /  -14.7 °C 4.1 °F /  -15.5 °C 1007.0 in /  34097 hPa ENE 4.3 mph /  6.9 km/h 12.2 mph /  19.6 km/h 90 % 0.0 in /  0 mm
21:36 5.6 °F /  -14.7 °C 4.1 °F /  -15.5 °C 1007.0 in /  34097 hPa East 5.0 mph /  8 km/h 12.2 mph /  19.6 km/h 90 % 0.0 in /  0 mm
21:41 5.6 °F /  -14.7 °C 4.1 °F /  -15.5 °C 1007.0 in /  34097 hPa East 5.8 mph /  9.3 km/h 12.2 mph /  19.6 km/h 90 % 0.0 in /  0 mm
21:42 5.6 °F /  -14.7 °C 4.1 °F /  -15.5 °C 1007.0 in /  34097 hPa East 5.3 mph /  8.5 km/h 9.7 mph /  15.6 km/h 90 % 0.0 in /  0 mm
21:47 5.6 °F /  -14.7 °C 4.1 °F /  -15.5 °C 1007.0 in /  34097 hPa ENE 3.7 mph /  6 km/h 6.9 mph /  11.1 km/h 90 % 0.3 in /  7.62 mm
21:49 5.6 °F /  -14.7 °C 4.1 °F /  -15.5 °C 1007.0 in /  34097 hPa ENE 3.4 mph /  5.5 km/h 7.6 mph /  12.2 km/h 90 % 0.3 in /  7.62 mm
21:54 5.7 °F /  -14.6 °C 4.2 °F /  -15.4 °C 1007.0 in /  34097 hPa ENE 4.7 mph /  7.6 km/h 10.5 mph /  16.9 km/h 90 % 0.3 in /  7.62 mm
21:55 5.7 °F /  -14.6 °C 4.2 °F /  -15.4 °C 1007.0 in /  34097 hPa ENE 4.8 mph /  7.7 km/h 10.5 mph /  16.9 km/h 90 % 0.3 in /  7.62 mm
22:00 5.7 °F /  -14.6 °C 4.2 °F /  -15.4 °C 1007.0 in /  34097 hPa ENE 5.5 mph /  8.9 km/h 10.5 mph /  16.9 km/h 90 % 0.3 in /  7.62 mm
22:01 5.7 °F /  -14.6 °C 4.0 °F /  -15.6 °C 1007.0 in /  34097 hPa ENE 5.3 mph /  8.5 km/h 10.5 mph /  16.9 km/h 89 % 0.3 in /  7.62 mm
22:06 5.7 °F /  -14.6 °C 4.0 °F /  -15.6 °C 1007.0 in /  34097 hPa NNE 4.5 mph /  7.2 km/h 10.1 mph /  16.3 km/h 89 % 0.3 in /  7.62 mm
22:08 5.7 °F /  -14.6 °C 4.0 °F /  -15.6 °C 1007.0 in /  34097 hPa North 4.2 mph /  6.8 km/h 10.1 mph /  16.3 km/h 89 % 0.3 in /  7.62 mm
22:13 5.7 °F /  -14.6 °C 4.0 °F /  -15.6 °C 1007.0 in /  34097 hPa ENE 4.0 mph /  6.4 km/h 14.3 mph /  23 km/h 89 % 0.3 in /  7.62 mm
22:15 5.7 °F /  -14.6 °C 4.0 °F /  -15.6 °C 1007.0 in /  34097 hPa ENE 3.5 mph /  5.6 km/h 14.3 mph /  23 km/h 89 % 0.3 in /  7.62 mm
22:21 5.7 °F /  -14.6 °C 4.0 °F /  -15.6 °C 1007.0 in /  34097 hPa ENE 4.8 mph /  7.7 km/h 14.3 mph /  23 km/h 89 % 0.3 in /  7.62 mm
22:22 5.7 °F /  -14.6 °C 3.9 °F /  -15.6 °C 1007.0 in /  34097 hPa East 5.0 mph /  8 km/h 11.9 mph /  19.2 km/h 88 % 0.3 in /  7.62 mm
22:23 5.7 °F /  -14.6 °C 3.9 °F /  -15.6 °C 1007.0 in /  34097 hPa East 5.0 mph /  8 km/h 11.9 mph /  19.2 km/h 88 % 0.3 in /  7.62 mm
22:28 5.7 °F /  -14.6 °C 3.9 °F /  -15.6 °C 1007.0 in /  34097 hPa ENE 6.3 mph /  10.1 km/h 13.7 mph /  22 km/h 88 % 0.3 in /  7.62 mm
22:32 5.7 °F /  -14.6 °C 3.9 °F /  -15.6 °C 1007.0 in /  34097 hPa ENE 6.4 mph /  10.3 km/h 13.7 mph /  22 km/h 88 % 0.3 in /  7.62 mm
22:37 5.6 °F /  -14.7 °C 3.8 °F /  -15.7 °C 1007.0 in /  34097 hPa NE 4.5 mph /  7.2 km/h 11.1 mph /  17.9 km/h 88 % 0.3 in /  7.62 mm
22:39 5.6 °F /  -14.7 °C 3.8 °F /  -15.7 °C 1007.0 in /  34097 hPa NE 4.3 mph /  6.9 km/h 11.1 mph /  17.9 km/h 88 % 0.3 in /  7.62 mm
22:44 5.6 °F /  -14.7 °C 3.8 °F /  -15.7 °C 1007.0 in /  34097 hPa ENE 5.5 mph /  8.9 km/h 11.9 mph /  19.2 km/h 88 % 0.3 in /  7.62 mm
22:49 5.5 °F /  -14.7 °C 3.7 °F /  -15.7 °C 1007.0 in /  34097 hPa ENE 5.5 mph /  8.9 km/h 11.9 mph /  19.2 km/h 88 % 0.3 in /  7.62 mm
22:55 5.4 °F /  -14.8 °C 3.6 °F /  -15.8 °C 1007.0 in /  34097 hPa SW 4.0 mph /  6.4 km/h 8.7 mph /  14 km/h 88 % 0.8 in /  20.32 mm
23:00 5.3 °F /  -14.8 °C 3.5 °F /  -15.8 °C 1007.0 in /  34097 hPa SW 5.1 mph /  8.2 km/h 7.2 mph /  11.6 km/h 88 % 0.8 in /  20.32 mm
23:01 5.3 °F /  -14.8 °C 3.3 °F /  -15.9 °C 1007.0 in /  34097 hPa SW 5.5 mph /  8.9 km/h 7.2 mph /  11.6 km/h 87 % 1.0 in /  25.4 mm
23:02 5.2 °F /  -14.9 °C 3.2 °F /  -16 °C 1007.0 in /  34097 hPa SW 5.5 mph /  8.9 km/h 7.2 mph /  11.6 km/h 87 % 1.0 in /  25.4 mm
23:07 5.1 °F /  -14.9 °C 3.1 °F /  -16.1 °C 1007.0 in /  34097 hPa SW 3.7 mph /  6 km/h 7.2 mph /  11.6 km/h 87 % 1.0 in /  25.4 mm
23:08 5.1 °F /  -14.9 °C 3.1 °F /  -16.1 °C 1007.0 in /  34097 hPa SW 3.4 mph /  5.5 km/h 7.2 mph /  11.6 km/h 87 % 1.0 in /  25.4 mm
23:13 5.1 °F /  -14.9 °C 3.1 °F /  -16.1 °C 1007.0 in /  34097 hPa SSW 1.0 mph /  1.6 km/h 4.7 mph /  7.6 km/h 87 % 1.3 in /  33.02 mm
23:14 5.1 °F /  -14.9 °C 3.1 °F /  -16.1 °C 1007.0 in /  34097 hPa South 0.5 mph /  0.8 km/h 2.1 mph /  3.4 km/h 87 % 1.5 in /  38.1 mm
23:16 5.0 °F /  -15 °C 3.0 °F /  -16.1 °C 1007.0 in /  34097 hPa SSE 0.2 mph /  0.3 km/h 1.8 mph /  2.9 km/h 87 % 1.5 in /  38.1 mm
23:21 5.0 °F /  -15 °C 3.0 °F /  -16.1 °C 1007.0 in /  34097 hPa SSW 0.3 mph /  0.5 km/h 4.0 mph /  6.4 km/h 87 % 1.5 in /  38.1 mm
23:25 4.9 °F /  -15.1 °C 3.1 °F /  -16.1 °C 1007.0 in /  34097 hPa WSW 1.4 mph /  2.3 km/h 4.7 mph /  7.6 km/h 88 % 1.5 in /  38.1 mm
23:28 4.9 °F /  -15.1 °C 3.1 °F /  -16.1 °C 1007.0 in /  34097 hPa WSW 1.9 mph /  3.1 km/h 4.7 mph /  7.6 km/h 88 % 1.5 in /  38.1 mm
23:30 4.8 °F /  -15.1 °C 3.0 °F /  -16.1 °C 1007.0 in /  34097 hPa West 1.9 mph /  3.1 km/h 5.0 mph /  8 km/h 88 % 1.8 in /  45.72 mm
23:35 4.8 °F /  -15.1 °C 3.0 °F /  -16.1 °C 1007.0 in /  34097 hPa SW 2.1 mph /  3.4 km/h 5.5 mph /  8.9 km/h 88 % 1.8 in /  45.72 mm
23:40 4.7 °F /  -15.2 °C 2.9 °F /  -16.2 °C 1007.0 in /  34097 hPa SSW 1.9 mph /  3.1 km/h 5.0 mph /  8 km/h 88 % 1.5 in /  38.1 mm
23:43 4.7 °F /  -15.2 °C 2.9 °F /  -16.2 °C 1007.0 in /  34097 hPa South 1.0 mph /  1.6 km/h 4.0 mph /  6.4 km/h 88 % 1.5 in /  38.1 mm
23:48 4.7 °F /  -15.2 °C 2.9 °F /  -16.2 °C 1007.0 in /  34097 hPa SE 1.0 mph /  1.6 km/h 5.5 mph /  8.9 km/h 88 % 1.5 in /  38.1 mm
23:49 4.6 °F /  -15.2 °C 2.8 °F /  -16.2 °C 1007.0 in /  34097 hPa SE 1.4 mph /  2.3 km/h 7.9 mph /  12.7 km/h 88 % 1.5 in /  38.1 mm
23:54 4.6 °F /  -15.2 °C 2.8 °F /  -16.2 °C 1007.0 in /  34097 hPa East 5.0 mph /  8 km/h 10.5 mph /  16.9 km/h 88 % 1.3 in /  33.02 mm
23:55 4.6 °F /  -15.2 °C 2.8 °F /  -16.2 °C 1007.0 in /  34097 hPa East 5.1 mph /  8.2 km/h 10.5 mph /  16.9 km/h 88 % 1.3 in /  33.02 mm
Vremenska postaja Senovo
Podatki zbrani iz Weather Underground - 3.75 mb

Script developed by  Jim McMurry - jmcmurry@mwt.net Adapted for the template by  Wim van der Kuil - Leuven-Template.eu

Vremenski podatki so objavljeni na:

European Weather Network

WeatherCloud

Weather Underground

AWEKAS

HAMweather, WeatherForYou, PWS Weather

MapView

Geostik

Slovenia weather network

Oprema, ki se uporablja:

Vremenski program
Cumulus

Vremenski server
Asus

Cumulus

Asus